<?xml version="1.0" encoding="UTF-8" standalone="no" ?>
<gpx xmlns="http://www.topografix.com/GPX/1/1" xmlns:xsi="http://www.w3.org/2001/XMLSchema-instance" xsi:schemaLocation="http://www.topografix.com/GPX/1/1 http://www.topografix.com/GPX/1/1/gpx.xsd" version="1.1" creator="VisuGPX - https://www.visugpx.com">
  <metadata>
    <name>Col de Jou Prattes rouges mariailles Col de Jou 20/04/18</name>
    <desc><![CDATA[Col de Jou Prattes rouges mariailles Col de Jou]]></desc>
  </metadata>
  <trk>
    <name><![CDATA[20180501173904-XkijM]]></name>
    <trkseg>
      <trkpt lat="42.50094" lon="2.3787">
        <ele>1297</ele>
        <time>2018-04-20T09:19:50.999Z</time>
      </trkpt>
      <trkpt lat="42.50089" lon="2.37857">
        <ele>1295</ele>
        <time>2018-04-20T09:19:55.999Z</time>
      </trkpt>
      <trkpt lat="42.50083" lon="2.37848">
        <ele>1306</ele>
        <time>2018-04-20T09:20:02.999Z</time>
      </trkpt>
      <trkpt lat="42.50077" lon="2.37836">
        <ele>1300</ele>
        <time>2018-04-20T09:20:15.999Z</time>
      </trkpt>
      <trkpt lat="42.5007" lon="2.37826">
        <ele>1296</ele>
        <time>2018-04-20T09:20:23.999Z</time>
      </trkpt>
      <trkpt lat="42.50062" lon="2.37822">
        <ele>1298</ele>
        <time>2018-04-20T09:20:32.999Z</time>
      </trkpt>
      <trkpt lat="42.50055" lon="2.37813">
        <ele>1300</ele>
        <time>2018-04-20T09:20:39.999Z</time>
      </trkpt>
      <trkpt lat="42.50048" lon="2.37805">
        <ele>1301</ele>
        <time>2018-04-20T09:21:28.999Z</time>
      </trkpt>
      <trkpt lat="42.50043" lon="2.37793">
        <ele>1301</ele>
        <time>2018-04-20T09:21:36.999Z</time>
      </trkpt>
      <trkpt lat="42.50042" lon="2.3778">
        <ele>1300</ele>
        <time>2018-04-20T09:21:48.999Z</time>
      </trkpt>
      <trkpt lat="42.5004" lon="2.37768">
        <ele>1299</ele>
        <time>2018-04-20T09:22:02.999Z</time>
      </trkpt>
      <trkpt lat="42.5004" lon="2.37755">
        <ele>1298</ele>
        <time>2018-04-20T09:22:20.999Z</time>
      </trkpt>
      <trkpt lat="42.50038" lon="2.37743">
        <ele>1292</ele>
        <time>2018-04-20T09:22:37.999Z</time>
      </trkpt>
      <trkpt lat="42.50034" lon="2.37731">
        <ele>1293</ele>
        <time>2018-04-20T09:22:47.999Z</time>
      </trkpt>
      <trkpt lat="42.50033" lon="2.37717">
        <ele>1292</ele>
        <time>2018-04-20T09:22:54.999Z</time>
      </trkpt>
      <trkpt lat="42.50032" lon="2.37704">
        <ele>1292</ele>
        <time>2018-04-20T09:23:06.999Z</time>
      </trkpt>
      <trkpt lat="42.5003" lon="2.37691">
        <ele>1293</ele>
        <time>2018-04-20T09:23:18.999Z</time>
      </trkpt>
      <trkpt lat="42.50026" lon="2.37679">
        <ele>1295</ele>
        <time>2018-04-20T09:23:32.999Z</time>
      </trkpt>
      <trkpt lat="42.50022" lon="2.37667">
        <ele>1298</ele>
        <time>2018-04-20T09:23:48.999Z</time>
      </trkpt>
      <trkpt lat="42.50018" lon="2.37656">
        <ele>1300</ele>
        <time>2018-04-20T09:24:01.999Z</time>
      </trkpt>
      <trkpt lat="42.50015" lon="2.37643">
        <ele>1299</ele>
        <time>2018-04-20T09:24:15.999Z</time>
      </trkpt>
      <trkpt lat="42.50013" lon="2.3763">
        <ele>1298</ele>
        <time>2018-04-20T09:24:21.999Z</time>
      </trkpt>
      <trkpt lat="42.50021" lon="2.37621">
        <ele>1297</ele>
        <time>2018-04-20T09:24:54.999Z</time>
      </trkpt>
      <trkpt lat="42.50028" lon="2.3761">
        <ele>1295</ele>
        <time>2018-04-20T09:25:08.999Z</time>
      </trkpt>
      <trkpt lat="42.50031" lon="2.37598">
        <ele>1295</ele>
        <time>2018-04-20T09:25:22.999Z</time>
      </trkpt>
      <trkpt lat="42.50035" lon="2.37586">
        <ele>1294</ele>
        <time>2018-04-20T09:25:30.999Z</time>
      </trkpt>
      <trkpt lat="42.50042" lon="2.37577">
        <ele>1295</ele>
        <time>2018-04-20T09:25:43.999Z</time>
      </trkpt>
      <trkpt lat="42.50046" lon="2.37566">
        <ele>1294</ele>
        <time>2018-04-20T09:25:47.999Z</time>
      </trkpt>
      <trkpt lat="42.50053" lon="2.37556">
        <ele>1292</ele>
        <time>2018-04-20T09:25:56.999Z</time>
      </trkpt>
      <trkpt lat="42.50055" lon="2.37543">
        <ele>1293</ele>
        <time>2018-04-20T09:26:04.999Z</time>
      </trkpt>
      <trkpt lat="42.50053" lon="2.3753">
        <ele>1294</ele>
        <time>2018-04-20T09:26:14.999Z</time>
      </trkpt>
      <trkpt lat="42.5005" lon="2.37518">
        <ele>1295</ele>
        <time>2018-04-20T09:26:22.999Z</time>
      </trkpt>
      <trkpt lat="42.50045" lon="2.37507">
        <ele>1297</ele>
        <time>2018-04-20T09:26:34.999Z</time>
      </trkpt>
      <trkpt lat="42.50039" lon="2.37497">
        <ele>1306</ele>
        <time>2018-04-20T09:26:44.999Z</time>
      </trkpt>
      <trkpt lat="42.50038" lon="2.37483">
        <ele>1307</ele>
        <time>2018-04-20T09:27:06.999Z</time>
      </trkpt>
      <trkpt lat="42.50036" lon="2.3747">
        <ele>1308</ele>
        <time>2018-04-20T09:27:29.999Z</time>
      </trkpt>
      <trkpt lat="42.50032" lon="2.37459">
        <ele>1310</ele>
        <time>2018-04-20T09:27:46.999Z</time>
      </trkpt>
      <trkpt lat="42.5004" lon="2.37455">
        <ele>1307</ele>
        <time>2018-04-20T09:28:12.999Z</time>
      </trkpt>
      <trkpt lat="42.5005" lon="2.37447">
        <ele>1304</ele>
        <time>2018-04-20T09:28:19.999Z</time>
      </trkpt>
      <trkpt lat="42.50057" lon="2.3744">
        <ele>1301</ele>
        <time>2018-04-20T09:28:31.999Z</time>
      </trkpt>
      <trkpt lat="42.50064" lon="2.37432">
        <ele>1298</ele>
        <time>2018-04-20T09:28:41.999Z</time>
      </trkpt>
      <trkpt lat="42.50071" lon="2.37419">
        <ele>1292</ele>
        <time>2018-04-20T09:28:46.999Z</time>
      </trkpt>
      <trkpt lat="42.50078" lon="2.37409">
        <ele>1293</ele>
        <time>2018-04-20T09:28:55.999Z</time>
      </trkpt>
      <trkpt lat="42.5008" lon="2.37397">
        <ele>1300</ele>
        <time>2018-04-20T09:29:03.999Z</time>
      </trkpt>
      <trkpt lat="42.50083" lon="2.37385">
        <ele>1304</ele>
        <time>2018-04-20T09:29:15.999Z</time>
      </trkpt>
      <trkpt lat="42.50088" lon="2.37371">
        <ele>1272</ele>
        <time>2018-04-20T09:29:32.999Z</time>
      </trkpt>
      <trkpt lat="42.50097" lon="2.37376">
        <ele>1269</ele>
        <time>2018-04-20T09:29:40.999Z</time>
      </trkpt>
      <trkpt lat="42.50088" lon="2.37376">
        <ele>1271</ele>
        <time>2018-04-20T09:29:56.999Z</time>
      </trkpt>
      <trkpt lat="42.50079" lon="2.3737">
        <ele>1307</ele>
        <time>2018-04-20T09:30:06.999Z</time>
      </trkpt>
      <trkpt lat="42.50084" lon="2.37359">
        <ele>1276</ele>
        <time>2018-04-20T09:30:39.999Z</time>
      </trkpt>
      <trkpt lat="42.5009" lon="2.37348">
        <ele>1280</ele>
        <time>2018-04-20T09:30:45.999Z</time>
      </trkpt>
      <trkpt lat="42.50094" lon="2.37336">
        <ele>1283</ele>
        <time>2018-04-20T09:30:56.999Z</time>
      </trkpt>
      <trkpt lat="42.50097" lon="2.37324">
        <ele>1284</ele>
        <time>2018-04-20T09:31:08.999Z</time>
      </trkpt>
      <trkpt lat="42.50097" lon="2.3731">
        <ele>1281</ele>
        <time>2018-04-20T09:31:17.999Z</time>
      </trkpt>
      <trkpt lat="42.50096" lon="2.37297">
        <ele>1280</ele>
        <time>2018-04-20T09:31:27.999Z</time>
      </trkpt>
      <trkpt lat="42.50095" lon="2.37285">
        <ele>1281</ele>
        <time>2018-04-20T09:31:43.999Z</time>
      </trkpt>
      <trkpt lat="42.501" lon="2.37274">
        <ele>1282</ele>
        <time>2018-04-20T09:32:08.999Z</time>
      </trkpt>
      <trkpt lat="42.50104" lon="2.37261">
        <ele>1284</ele>
        <time>2018-04-20T09:32:29.999Z</time>
      </trkpt>
      <trkpt lat="42.50106" lon="2.37249">
        <ele>1289</ele>
        <time>2018-04-20T09:32:39.999Z</time>
      </trkpt>
      <trkpt lat="42.50106" lon="2.37236">
        <ele>1288</ele>
        <time>2018-04-20T09:32:50.999Z</time>
      </trkpt>
      <trkpt lat="42.50108" lon="2.37224">
        <ele>1286</ele>
        <time>2018-04-20T09:33:05.999Z</time>
      </trkpt>
      <trkpt lat="42.50113" lon="2.37213">
        <ele>1285</ele>
        <time>2018-04-20T09:33:18.999Z</time>
      </trkpt>
      <trkpt lat="42.50116" lon="2.37201">
        <ele>1284</ele>
        <time>2018-04-20T09:33:29.999Z</time>
      </trkpt>
      <trkpt lat="42.50118" lon="2.37187">
        <ele>1285</ele>
        <time>2018-04-20T09:33:39.999Z</time>
      </trkpt>
      <trkpt lat="42.50123" lon="2.37177">
        <ele>1283</ele>
        <time>2018-04-20T09:33:50.999Z</time>
      </trkpt>
      <trkpt lat="42.50128" lon="2.37166">
        <ele>1286</ele>
        <time>2018-04-20T09:34:04.999Z</time>
      </trkpt>
      <trkpt lat="42.50129" lon="2.37154">
        <ele>1286</ele>
        <time>2018-04-20T09:34:18.999Z</time>
      </trkpt>
      <trkpt lat="42.50126" lon="2.37142">
        <ele>1288</ele>
        <time>2018-04-20T09:34:33.999Z</time>
      </trkpt>
      <trkpt lat="42.50129" lon="2.37131">
        <ele>1288</ele>
        <time>2018-04-20T09:34:52.999Z</time>
      </trkpt>
      <trkpt lat="42.50133" lon="2.37119">
        <ele>1287</ele>
        <time>2018-04-20T09:35:01.999Z</time>
      </trkpt>
      <trkpt lat="42.50135" lon="2.37106">
        <ele>1287</ele>
        <time>2018-04-20T09:35:12.999Z</time>
      </trkpt>
      <trkpt lat="42.50135" lon="2.37094">
        <ele>1287</ele>
        <time>2018-04-20T09:35:22.999Z</time>
      </trkpt>
      <trkpt lat="42.5013" lon="2.37083">
        <ele>1287</ele>
        <time>2018-04-20T09:35:31.999Z</time>
      </trkpt>
      <trkpt lat="42.50126" lon="2.37072">
        <ele>1288</ele>
        <time>2018-04-20T09:35:40.999Z</time>
      </trkpt>
      <trkpt lat="42.50119" lon="2.37063">
        <ele>1289</ele>
        <time>2018-04-20T09:35:53.999Z</time>
      </trkpt>
      <trkpt lat="42.50114" lon="2.37052">
        <ele>1289</ele>
        <time>2018-04-20T09:36:12.999Z</time>
      </trkpt>
      <trkpt lat="42.50109" lon="2.3704">
        <ele>1289</ele>
        <time>2018-04-20T09:36:24.999Z</time>
      </trkpt>
      <trkpt lat="42.50104" lon="2.37029">
        <ele>1288</ele>
        <time>2018-04-20T09:36:36.999Z</time>
      </trkpt>
      <trkpt lat="42.50098" lon="2.37019">
        <ele>1289</ele>
        <time>2018-04-20T09:36:48.999Z</time>
      </trkpt>
      <trkpt lat="42.50092" lon="2.37009">
        <ele>1289</ele>
        <time>2018-04-20T09:36:58.999Z</time>
      </trkpt>
      <trkpt lat="42.50082" lon="2.37007">
        <ele>1296</ele>
        <time>2018-04-20T09:37:12.999Z</time>
      </trkpt>
      <trkpt lat="42.50074" lon="2.37002">
        <ele>1298</ele>
        <time>2018-04-20T09:37:20.999Z</time>
      </trkpt>
      <trkpt lat="42.50064" lon="2.36997">
        <ele>1287</ele>
        <time>2018-04-20T09:37:26.999Z</time>
      </trkpt>
      <trkpt lat="42.50055" lon="2.37003">
        <ele>1305</ele>
        <time>2018-04-20T09:38:05.999Z</time>
      </trkpt>
      <trkpt lat="42.50046" lon="2.36999">
        <ele>1288</ele>
        <time>2018-04-20T09:38:20.999Z</time>
      </trkpt>
      <trkpt lat="42.50037" lon="2.36994">
        <ele>1289</ele>
        <time>2018-04-20T09:38:32.999Z</time>
      </trkpt>
      <trkpt lat="42.50028" lon="2.36994">
        <ele>1291</ele>
        <time>2018-04-20T09:38:40.999Z</time>
      </trkpt>
      <trkpt lat="42.50018" lon="2.3699">
        <ele>1293</ele>
        <time>2018-04-20T09:38:51.999Z</time>
      </trkpt>
      <trkpt lat="42.50011" lon="2.36982">
        <ele>1292</ele>
        <time>2018-04-20T09:39:02.999Z</time>
      </trkpt>
      <trkpt lat="42.50009" lon="2.3697">
        <ele>1288</ele>
        <time>2018-04-20T09:39:16.999Z</time>
      </trkpt>
      <trkpt lat="42.50002" lon="2.36962">
        <ele>1286</ele>
        <time>2018-04-20T09:39:49.999Z</time>
      </trkpt>
      <trkpt lat="42.49994" lon="2.36955">
        <ele>1299</ele>
        <time>2018-04-20T09:39:57.000Z</time>
      </trkpt>
      <trkpt lat="42.49984" lon="2.36948">
        <ele>1299</ele>
        <time>2018-04-20T09:40:04.000Z</time>
      </trkpt>
      <trkpt lat="42.49975" lon="2.36943">
        <ele>1299</ele>
        <time>2018-04-20T09:40:13.000Z</time>
      </trkpt>
      <trkpt lat="42.49967" lon="2.36937">
        <ele>1300</ele>
        <time>2018-04-20T09:40:24.000Z</time>
      </trkpt>
      <trkpt lat="42.49963" lon="2.36926">
        <ele>1299</ele>
        <time>2018-04-20T09:40:40.000Z</time>
      </trkpt>
      <trkpt lat="42.49957" lon="2.36916">
        <ele>1280</ele>
        <time>2018-04-20T09:40:49.000Z</time>
      </trkpt>
      <trkpt lat="42.49952" lon="2.36904">
        <ele>1281</ele>
        <time>2018-04-20T09:41:03.000Z</time>
      </trkpt>
      <trkpt lat="42.49943" lon="2.36902">
        <ele>1283</ele>
        <time>2018-04-20T09:41:56.000Z</time>
      </trkpt>
      <trkpt lat="42.49934" lon="2.36907">
        <ele>1288</ele>
        <time>2018-04-20T09:42:34.000Z</time>
      </trkpt>
      <trkpt lat="42.49926" lon="2.36907">
        <ele>1293</ele>
        <time>2018-04-20T09:43:13.000Z</time>
      </trkpt>
      <trkpt lat="42.49927" lon="2.3692">
        <ele>1306</ele>
        <time>2018-04-20T09:43:48.000Z</time>
      </trkpt>
      <trkpt lat="42.49933" lon="2.3693">
        <ele>1306</ele>
        <time>2018-04-20T09:44:25.000Z</time>
      </trkpt>
      <trkpt lat="42.49932" lon="2.36942">
        <ele>1307</ele>
        <time>2018-04-20T09:44:47.000Z</time>
      </trkpt>
      <trkpt lat="42.49937" lon="2.36953">
        <ele>1309</ele>
        <time>2018-04-20T09:45:01.000Z</time>
      </trkpt>
      <trkpt lat="42.49947" lon="2.36954">
        <ele>1308</ele>
        <time>2018-04-20T09:45:25.000Z</time>
      </trkpt>
      <trkpt lat="42.49941" lon="2.36964">
        <ele>1311</ele>
        <time>2018-04-20T09:45:59.000Z</time>
      </trkpt>
      <trkpt lat="42.49942" lon="2.36976">
        <ele>1314</ele>
        <time>2018-04-20T09:46:10.000Z</time>
      </trkpt>
      <trkpt lat="42.49945" lon="2.36988">
        <ele>1316</ele>
        <time>2018-04-20T09:47:12.000Z</time>
      </trkpt>
      <trkpt lat="42.4995" lon="2.36998">
        <ele>1315</ele>
        <time>2018-04-20T09:47:27.000Z</time>
      </trkpt>
      <trkpt lat="42.49956" lon="2.37009">
        <ele>1335</ele>
        <time>2018-04-20T09:47:45.000Z</time>
      </trkpt>
      <trkpt lat="42.49959" lon="2.3702">
        <ele>1336</ele>
        <time>2018-04-20T09:48:02.000Z</time>
      </trkpt>
      <trkpt lat="42.49962" lon="2.37032">
        <ele>1338</ele>
        <time>2018-04-20T09:48:20.000Z</time>
      </trkpt>
      <trkpt lat="42.49954" lon="2.37041">
        <ele>1341</ele>
        <time>2018-04-20T09:49:24.000Z</time>
      </trkpt>
      <trkpt lat="42.49953" lon="2.37054">
        <ele>1344</ele>
        <time>2018-04-20T09:49:33.000Z</time>
      </trkpt>
      <trkpt lat="42.49955" lon="2.37068">
        <ele>1346</ele>
        <time>2018-04-20T09:49:40.000Z</time>
      </trkpt>
      <trkpt lat="42.49962" lon="2.37077">
        <ele>1345</ele>
        <time>2018-04-20T09:49:56.000Z</time>
      </trkpt>
      <trkpt lat="42.4996" lon="2.3709">
        <ele>1366</ele>
        <time>2018-04-20T09:50:48.000Z</time>
      </trkpt>
      <trkpt lat="42.49952" lon="2.37084">
        <ele>1367</ele>
        <time>2018-04-20T09:51:55.000Z</time>
      </trkpt>
      <trkpt lat="42.49945" lon="2.37073">
        <ele>1350</ele>
        <time>2018-04-20T09:52:08.000Z</time>
      </trkpt>
      <trkpt lat="42.49941" lon="2.37063">
        <ele>1349</ele>
        <time>2018-04-20T09:52:19.000Z</time>
      </trkpt>
      <trkpt lat="42.49932" lon="2.37066">
        <ele>1353</ele>
        <time>2018-04-20T09:52:41.000Z</time>
      </trkpt>
      <trkpt lat="42.49923" lon="2.37064">
        <ele>1355</ele>
        <time>2018-04-20T09:53:33.000Z</time>
      </trkpt>
      <trkpt lat="42.49914" lon="2.3706">
        <ele>1370</ele>
        <time>2018-04-20T09:54:05.000Z</time>
      </trkpt>
      <trkpt lat="42.4991" lon="2.37071">
        <ele>1372</ele>
        <time>2018-04-20T09:54:18.000Z</time>
      </trkpt>
      <trkpt lat="42.49903" lon="2.37081">
        <ele>1372</ele>
        <time>2018-04-20T09:54:50.000Z</time>
      </trkpt>
      <trkpt lat="42.49906" lon="2.37092">
        <ele>1385</ele>
        <time>2018-04-20T09:55:09.000Z</time>
      </trkpt>
      <trkpt lat="42.49901" lon="2.37103">
        <ele>1391</ele>
        <time>2018-04-20T09:55:36.000Z</time>
      </trkpt>
      <trkpt lat="42.49892" lon="2.37107">
        <ele>1395</ele>
        <time>2018-04-20T09:56:05.000Z</time>
      </trkpt>
      <trkpt lat="42.49882" lon="2.37106">
        <ele>1397</ele>
        <time>2018-04-20T09:56:16.000Z</time>
      </trkpt>
      <trkpt lat="42.49876" lon="2.37097">
        <ele>1397</ele>
        <time>2018-04-20T09:56:31.000Z</time>
      </trkpt>
      <trkpt lat="42.49869" lon="2.37089">
        <ele>1398</ele>
        <time>2018-04-20T09:56:53.000Z</time>
      </trkpt>
      <trkpt lat="42.49863" lon="2.37098">
        <ele>1400</ele>
        <time>2018-04-20T09:57:14.000Z</time>
      </trkpt>
      <trkpt lat="42.49858" lon="2.37109">
        <ele>1402</ele>
        <time>2018-04-20T09:57:29.000Z</time>
      </trkpt>
      <trkpt lat="42.49862" lon="2.37121">
        <ele>1403</ele>
        <time>2018-04-20T09:57:41.000Z</time>
      </trkpt>
      <trkpt lat="42.4987" lon="2.37126">
        <ele>1403</ele>
        <time>2018-04-20T09:57:54.000Z</time>
      </trkpt>
      <trkpt lat="42.49877" lon="2.37135">
        <ele>1403</ele>
        <time>2018-04-20T09:58:14.000Z</time>
      </trkpt>
      <trkpt lat="42.49886" lon="2.37143">
        <ele>1403</ele>
        <time>2018-04-20T09:58:52.000Z</time>
      </trkpt>
      <trkpt lat="42.49892" lon="2.37152">
        <ele>1404</ele>
        <time>2018-04-20T09:59:12.000Z</time>
      </trkpt>
      <trkpt lat="42.49885" lon="2.37159">
        <ele>1405</ele>
        <time>2018-04-20T09:59:40.000Z</time>
      </trkpt>
      <trkpt lat="42.49876" lon="2.37163">
        <ele>1407</ele>
        <time>2018-04-20T10:00:09.000Z</time>
      </trkpt>
      <trkpt lat="42.49867" lon="2.37159">
        <ele>1409</ele>
        <time>2018-04-20T10:00:40.000Z</time>
      </trkpt>
      <trkpt lat="42.4987" lon="2.37171">
        <ele>1424</ele>
        <time>2018-04-20T10:01:25.000Z</time>
      </trkpt>
      <trkpt lat="42.49862" lon="2.37177">
        <ele>1426</ele>
        <time>2018-04-20T10:01:56.000Z</time>
      </trkpt>
      <trkpt lat="42.49856" lon="2.37187">
        <ele>1427</ele>
        <time>2018-04-20T10:02:34.000Z</time>
      </trkpt>
      <trkpt lat="42.49847" lon="2.37191">
        <ele>1428</ele>
        <time>2018-04-20T10:02:59.000Z</time>
      </trkpt>
      <trkpt lat="42.49842" lon="2.37201">
        <ele>1430</ele>
        <time>2018-04-20T10:03:31.000Z</time>
      </trkpt>
      <trkpt lat="42.49846" lon="2.37212">
        <ele>1432</ele>
        <time>2018-04-20T10:03:48.000Z</time>
      </trkpt>
      <trkpt lat="42.49836" lon="2.37211">
        <ele>1433</ele>
        <time>2018-04-20T10:04:16.000Z</time>
      </trkpt>
      <trkpt lat="42.49832" lon="2.37222">
        <ele>1447</ele>
        <time>2018-04-20T10:05:08.000Z</time>
      </trkpt>
      <trkpt lat="42.49824" lon="2.37228">
        <ele>1449</ele>
        <time>2018-04-20T10:05:36.000Z</time>
      </trkpt>
      <trkpt lat="42.4982" lon="2.3724">
        <ele>1450</ele>
        <time>2018-04-20T10:06:16.000Z</time>
      </trkpt>
      <trkpt lat="42.4981" lon="2.37242">
        <ele>1450</ele>
        <time>2018-04-20T10:06:30.000Z</time>
      </trkpt>
      <trkpt lat="42.49801" lon="2.37245">
        <ele>1451</ele>
        <time>2018-04-20T10:06:44.000Z</time>
      </trkpt>
      <trkpt lat="42.49793" lon="2.37251">
        <ele>1466</ele>
        <time>2018-04-20T10:07:19.000Z</time>
      </trkpt>
      <trkpt lat="42.49783" lon="2.37253">
        <ele>1467</ele>
        <time>2018-04-20T10:07:29.000Z</time>
      </trkpt>
      <trkpt lat="42.49783" lon="2.37266">
        <ele>1467</ele>
        <time>2018-04-20T10:07:45.000Z</time>
      </trkpt>
      <trkpt lat="42.4978" lon="2.37277">
        <ele>1469</ele>
        <time>2018-04-20T10:08:04.000Z</time>
      </trkpt>
      <trkpt lat="42.49778" lon="2.3729">
        <ele>1470</ele>
        <time>2018-04-20T10:08:21.000Z</time>
      </trkpt>
      <trkpt lat="42.49773" lon="2.37301">
        <ele>1472</ele>
        <time>2018-04-20T10:09:42.000Z</time>
      </trkpt>
      <trkpt lat="42.49733" lon="2.37599">
        <ele>1507</ele>
      </trkpt>
      <trkpt lat="42.49781" lon="2.38146">
        <ele>1558</ele>
      </trkpt>
      <trkpt lat="42.49856" lon="2.38078">
        <ele>1484</ele>
      </trkpt>
      <trkpt lat="42.49858" lon="2.3829">
        <ele>1571</ele>
      </trkpt>
      <trkpt lat="42.4986" lon="2.38431">
        <ele>1627</ele>
      </trkpt>
      <trkpt lat="42.49974" lon="2.38879">
        <ele>1725</ele>
      </trkpt>
      <trkpt lat="42.50076" lon="2.39309">
        <ele>1766</ele>
        <time>2018-04-20T12:01:31.000Z</time>
      </trkpt>
      <trkpt lat="42.50077" lon="2.39322">
        <ele>1762</ele>
        <time>2018-04-20T12:01:49.000Z</time>
      </trkpt>
      <trkpt lat="42.50046" lon="2.39223">
        <ele>1785</ele>
      </trkpt>
      <trkpt lat="42.50072" lon="2.39344">
        <ele>1758</ele>
        <time>2018-04-20T12:02:12.000Z</time>
      </trkpt>
      <trkpt lat="42.50071" lon="2.39357">
        <ele>1760</ele>
        <time>2018-04-20T12:02:23.000Z</time>
      </trkpt>
      <trkpt lat="42.50067" lon="2.39367">
        <ele>1761</ele>
        <time>2018-04-20T12:02:38.000Z</time>
      </trkpt>
      <trkpt lat="42.50062" lon="2.39378">
        <ele>1761</ele>
        <time>2018-04-20T12:02:50.000Z</time>
      </trkpt>
      <trkpt lat="42.50056" lon="2.39388">
        <ele>1762</ele>
        <time>2018-04-20T12:03:05.000Z</time>
      </trkpt>
      <trkpt lat="42.50052" lon="2.394">
        <ele>1761</ele>
        <time>2018-04-20T12:03:16.000Z</time>
      </trkpt>
      <trkpt lat="42.50046" lon="2.39408">
        <ele>1763</ele>
        <time>2018-04-20T12:03:26.000Z</time>
      </trkpt>
      <trkpt lat="42.50039" lon="2.39419">
        <ele>1755</ele>
        <time>2018-04-20T12:03:40.000Z</time>
      </trkpt>
      <trkpt lat="42.50031" lon="2.39428">
        <ele>1757</ele>
        <time>2018-04-20T12:03:46.000Z</time>
      </trkpt>
      <trkpt lat="42.50025" lon="2.39438">
        <ele>1757</ele>
        <time>2018-04-20T12:03:51.000Z</time>
      </trkpt>
      <trkpt lat="42.50019" lon="2.39447">
        <ele>1757</ele>
        <time>2018-04-20T12:04:03.000Z</time>
      </trkpt>
      <trkpt lat="42.50012" lon="2.39456">
        <ele>1756</ele>
        <time>2018-04-20T12:04:20.000Z</time>
      </trkpt>
      <trkpt lat="42.50006" lon="2.39466">
        <ele>1755</ele>
        <time>2018-04-20T12:04:32.000Z</time>
      </trkpt>
      <trkpt lat="42.49999" lon="2.39474">
        <ele>1772</ele>
        <time>2018-04-20T12:04:40.000Z</time>
      </trkpt>
      <trkpt lat="42.49991" lon="2.39482">
        <ele>1770</ele>
        <time>2018-04-20T12:04:51.000Z</time>
      </trkpt>
      <trkpt lat="42.49983" lon="2.39488">
        <ele>1770</ele>
        <time>2018-04-20T12:05:01.000Z</time>
      </trkpt>
      <trkpt lat="42.49977" lon="2.39499">
        <ele>1771</ele>
        <time>2018-04-20T12:05:18.000Z</time>
      </trkpt>
      <trkpt lat="42.49971" lon="2.39508">
        <ele>1762</ele>
        <time>2018-04-20T12:05:26.000Z</time>
      </trkpt>
      <trkpt lat="42.49965" lon="2.39519">
        <ele>1763</ele>
        <time>2018-04-20T12:05:36.000Z</time>
      </trkpt>
      <trkpt lat="42.4996" lon="2.3953">
        <ele>1763</ele>
        <time>2018-04-20T12:05:47.000Z</time>
      </trkpt>
      <trkpt lat="42.49954" lon="2.39541">
        <ele>1763</ele>
        <time>2018-04-20T12:06:07.000Z</time>
      </trkpt>
      <trkpt lat="42.49948" lon="2.39551">
        <ele>1763</ele>
        <time>2018-04-20T12:06:20.000Z</time>
      </trkpt>
      <trkpt lat="42.49938" lon="2.39552">
        <ele>1764</ele>
        <time>2018-04-20T12:06:32.000Z</time>
      </trkpt>
      <trkpt lat="42.49929" lon="2.39555">
        <ele>1765</ele>
        <time>2018-04-20T12:06:41.000Z</time>
      </trkpt>
      <trkpt lat="42.49921" lon="2.3956">
        <ele>1765</ele>
        <time>2018-04-20T12:06:54.000Z</time>
      </trkpt>
      <trkpt lat="42.49911" lon="2.39564">
        <ele>1779</ele>
        <time>2018-04-20T12:07:11.000Z</time>
      </trkpt>
      <trkpt lat="42.49902" lon="2.39571">
        <ele>1779</ele>
        <time>2018-04-20T12:07:18.000Z</time>
      </trkpt>
      <trkpt lat="42.49894" lon="2.39578">
        <ele>1781</ele>
        <time>2018-04-20T12:07:49.000Z</time>
      </trkpt>
      <trkpt lat="42.49887" lon="2.39586">
        <ele>1772</ele>
        <time>2018-04-20T12:08:04.000Z</time>
      </trkpt>
      <trkpt lat="42.4988" lon="2.39595">
        <ele>1773</ele>
        <time>2018-04-20T12:08:16.000Z</time>
      </trkpt>
      <trkpt lat="42.49874" lon="2.39604">
        <ele>1774</ele>
        <time>2018-04-20T12:08:30.000Z</time>
      </trkpt>
      <trkpt lat="42.49869" lon="2.39615">
        <ele>1774</ele>
        <time>2018-04-20T12:08:39.000Z</time>
      </trkpt>
      <trkpt lat="42.49863" lon="2.39626">
        <ele>1773</ele>
        <time>2018-04-20T12:08:52.000Z</time>
      </trkpt>
      <trkpt lat="42.49855" lon="2.39634">
        <ele>1774</ele>
        <time>2018-04-20T12:09:03.000Z</time>
      </trkpt>
      <trkpt lat="42.49848" lon="2.39641">
        <ele>1774</ele>
        <time>2018-04-20T12:09:18.000Z</time>
      </trkpt>
      <trkpt lat="42.49841" lon="2.39649">
        <ele>1775</ele>
        <time>2018-04-20T12:09:34.000Z</time>
      </trkpt>
      <trkpt lat="42.49833" lon="2.39657">
        <ele>1786</ele>
        <time>2018-04-20T12:09:44.000Z</time>
      </trkpt>
      <trkpt lat="42.49827" lon="2.39666">
        <ele>1783</ele>
        <time>2018-04-20T12:09:56.000Z</time>
      </trkpt>
      <trkpt lat="42.49823" lon="2.39677">
        <ele>1785</ele>
        <time>2018-04-20T12:10:14.000Z</time>
      </trkpt>
      <trkpt lat="42.49822" lon="2.39689">
        <ele>1788</ele>
        <time>2018-04-20T12:10:30.000Z</time>
      </trkpt>
      <trkpt lat="42.49822" lon="2.39703">
        <ele>1789</ele>
        <time>2018-04-20T12:10:50.000Z</time>
      </trkpt>
      <trkpt lat="42.49819" lon="2.39715">
        <ele>1789</ele>
        <time>2018-04-20T12:10:58.000Z</time>
      </trkpt>
      <trkpt lat="42.49817" lon="2.39727">
        <ele>1787</ele>
        <time>2018-04-20T12:11:12.000Z</time>
      </trkpt>
      <trkpt lat="42.4981" lon="2.39737">
        <ele>1788</ele>
        <time>2018-04-20T12:11:34.000Z</time>
      </trkpt>
      <trkpt lat="42.49805" lon="2.39747">
        <ele>1789</ele>
        <time>2018-04-20T12:11:53.000Z</time>
      </trkpt>
      <trkpt lat="42.49798" lon="2.39757">
        <ele>1793</ele>
        <time>2018-04-20T12:12:19.000Z</time>
      </trkpt>
      <trkpt lat="42.49793" lon="2.39768">
        <ele>1795</ele>
        <time>2018-04-20T12:13:02.000Z</time>
      </trkpt>
      <trkpt lat="42.49796" lon="2.3978">
        <ele>1795</ele>
        <time>2018-04-20T12:13:52.000Z</time>
      </trkpt>
      <trkpt lat="42.49798" lon="2.39793">
        <ele>1795</ele>
        <time>2018-04-20T12:14:23.000Z</time>
      </trkpt>
      <trkpt lat="42.49803" lon="2.39804">
        <ele>1794</ele>
        <time>2018-04-20T12:15:03.000Z</time>
      </trkpt>
      <trkpt lat="42.49804" lon="2.39817">
        <ele>1793</ele>
        <time>2018-04-20T12:15:16.000Z</time>
      </trkpt>
      <trkpt lat="42.49811" lon="2.39826">
        <ele>1790</ele>
        <time>2018-04-20T12:15:25.000Z</time>
      </trkpt>
      <trkpt lat="42.49817" lon="2.39838">
        <ele>1792</ele>
        <time>2018-04-20T12:15:36.000Z</time>
      </trkpt>
      <trkpt lat="42.49818" lon="2.39852">
        <ele>1795</ele>
        <time>2018-04-20T12:15:48.000Z</time>
      </trkpt>
      <trkpt lat="42.49824" lon="2.39862">
        <ele>1796</ele>
        <time>2018-04-20T12:16:04.000Z</time>
      </trkpt>
      <trkpt lat="42.49828" lon="2.39874">
        <ele>1798</ele>
        <time>2018-04-20T12:16:16.000Z</time>
      </trkpt>
      <trkpt lat="42.49833" lon="2.39884">
        <ele>1798</ele>
        <time>2018-04-20T12:16:25.000Z</time>
      </trkpt>
      <trkpt lat="42.49837" lon="2.39896">
        <ele>1777</ele>
        <time>2018-04-20T12:16:35.000Z</time>
      </trkpt>
      <trkpt lat="42.49843" lon="2.39906">
        <ele>1780</ele>
        <time>2018-04-20T12:16:43.000Z</time>
      </trkpt>
      <trkpt lat="42.49852" lon="2.39906">
        <ele>1776</ele>
        <time>2018-04-20T12:17:13.000Z</time>
      </trkpt>
      <trkpt lat="42.4986" lon="2.39913">
        <ele>1774</ele>
        <time>2018-04-20T12:17:33.000Z</time>
      </trkpt>
      <trkpt lat="42.49865" lon="2.39925">
        <ele>1778</ele>
        <time>2018-04-20T12:17:39.000Z</time>
      </trkpt>
      <trkpt lat="42.49869" lon="2.39935">
        <ele>1777</ele>
        <time>2018-04-20T12:17:54.000Z</time>
      </trkpt>
      <trkpt lat="42.49871" lon="2.39948">
        <ele>1776</ele>
        <time>2018-04-20T12:18:18.000Z</time>
      </trkpt>
      <trkpt lat="42.49875" lon="2.39959">
        <ele>1776</ele>
        <time>2018-04-20T12:18:41.000Z</time>
      </trkpt>
      <trkpt lat="42.49884" lon="2.39961">
        <ele>1774</ele>
        <time>2018-04-20T12:19:12.000Z</time>
      </trkpt>
      <trkpt lat="42.49889" lon="2.39971">
        <ele>1773</ele>
        <time>2018-04-20T12:19:40.000Z</time>
      </trkpt>
      <trkpt lat="42.49895" lon="2.39981">
        <ele>1772</ele>
        <time>2018-04-20T12:20:01.000Z</time>
      </trkpt>
      <trkpt lat="42.49892" lon="2.39994">
        <ele>1772</ele>
        <time>2018-04-20T12:20:23.000Z</time>
      </trkpt>
      <trkpt lat="42.49889" lon="2.40006">
        <ele>1773</ele>
        <time>2018-04-20T12:20:32.000Z</time>
      </trkpt>
      <trkpt lat="42.49887" lon="2.40018">
        <ele>1773</ele>
        <time>2018-04-20T12:20:51.000Z</time>
      </trkpt>
      <trkpt lat="42.49886" lon="2.40031">
        <ele>1774</ele>
        <time>2018-04-20T12:21:12.000Z</time>
      </trkpt>
      <trkpt lat="42.4988" lon="2.40042">
        <ele>1775</ele>
        <time>2018-04-20T12:21:19.000Z</time>
      </trkpt>
      <trkpt lat="42.49878" lon="2.40056">
        <ele>1774</ele>
        <time>2018-04-20T12:21:31.000Z</time>
      </trkpt>
      <trkpt lat="42.49869" lon="2.40061">
        <ele>1776</ele>
        <time>2018-04-20T12:21:44.000Z</time>
      </trkpt>
      <trkpt lat="42.49864" lon="2.40073">
        <ele>1777</ele>
        <time>2018-04-20T12:21:53.000Z</time>
      </trkpt>
      <trkpt lat="42.4986" lon="2.40085">
        <ele>1771</ele>
        <time>2018-04-20T12:22:11.000Z</time>
      </trkpt>
      <trkpt lat="42.49851" lon="2.40083">
        <ele>1781</ele>
        <time>2018-04-20T12:22:29.000Z</time>
      </trkpt>
      <trkpt lat="42.49841" lon="2.40086">
        <ele>1781</ele>
        <time>2018-04-20T12:22:37.000Z</time>
      </trkpt>
      <trkpt lat="42.49833" lon="2.40094">
        <ele>1791</ele>
        <time>2018-04-20T12:22:46.000Z</time>
      </trkpt>
      <trkpt lat="42.49826" lon="2.40103">
        <ele>1792</ele>
        <time>2018-04-20T12:22:59.000Z</time>
      </trkpt>
      <trkpt lat="42.49822" lon="2.40114">
        <ele>1793</ele>
        <time>2018-04-20T12:23:07.000Z</time>
      </trkpt>
      <trkpt lat="42.49815" lon="2.40122">
        <ele>1793</ele>
        <time>2018-04-20T12:23:16.000Z</time>
      </trkpt>
      <trkpt lat="42.49808" lon="2.4013">
        <ele>1794</ele>
        <time>2018-04-20T12:23:29.000Z</time>
      </trkpt>
      <trkpt lat="42.49804" lon="2.40143">
        <ele>1792</ele>
        <time>2018-04-20T12:23:40.000Z</time>
      </trkpt>
      <trkpt lat="42.49799" lon="2.40152">
        <ele>1793</ele>
        <time>2018-04-20T12:23:48.000Z</time>
      </trkpt>
      <trkpt lat="42.49795" lon="2.40164">
        <ele>1793</ele>
        <time>2018-04-20T12:23:59.000Z</time>
      </trkpt>
      <trkpt lat="42.49791" lon="2.40175">
        <ele>1784</ele>
        <time>2018-04-20T12:24:10.000Z</time>
      </trkpt>
      <trkpt lat="42.49793" lon="2.40188">
        <ele>1782</ele>
        <time>2018-04-20T12:24:23.000Z</time>
      </trkpt>
      <trkpt lat="42.49789" lon="2.40199">
        <ele>1782</ele>
        <time>2018-04-20T12:24:35.000Z</time>
      </trkpt>
      <trkpt lat="42.49784" lon="2.4021">
        <ele>1782</ele>
        <time>2018-04-20T12:24:50.000Z</time>
      </trkpt>
      <trkpt lat="42.49779" lon="2.40221">
        <ele>1782</ele>
        <time>2018-04-20T12:25:07.000Z</time>
      </trkpt>
      <trkpt lat="42.49777" lon="2.40233">
        <ele>1783</ele>
        <time>2018-04-20T12:25:35.000Z</time>
      </trkpt>
      <trkpt lat="42.49776" lon="2.40246">
        <ele>1783</ele>
        <time>2018-04-20T12:26:00.000Z</time>
      </trkpt>
      <trkpt lat="42.4977" lon="2.40255">
        <ele>1774</ele>
        <time>2018-04-20T12:26:35.000Z</time>
      </trkpt>
      <trkpt lat="42.49767" lon="2.40267">
        <ele>1772</ele>
        <time>2018-04-20T12:27:10.000Z</time>
      </trkpt>
      <trkpt lat="42.49762" lon="2.40278">
        <ele>1769</ele>
        <time>2018-04-20T12:27:20.000Z</time>
      </trkpt>
      <trkpt lat="42.49759" lon="2.40291">
        <ele>1766</ele>
        <time>2018-04-20T12:27:32.000Z</time>
      </trkpt>
      <trkpt lat="42.49751" lon="2.40299">
        <ele>1766</ele>
        <time>2018-04-20T12:27:42.000Z</time>
      </trkpt>
      <trkpt lat="42.49745" lon="2.40309">
        <ele>1785</ele>
        <time>2018-04-20T12:27:52.000Z</time>
      </trkpt>
      <trkpt lat="42.49741" lon="2.40322">
        <ele>1779</ele>
        <time>2018-04-20T12:28:03.000Z</time>
      </trkpt>
      <trkpt lat="42.49735" lon="2.40332">
        <ele>1779</ele>
        <time>2018-04-20T12:28:11.000Z</time>
      </trkpt>
      <trkpt lat="42.49727" lon="2.40339">
        <ele>1773</ele>
        <time>2018-04-20T12:28:21.000Z</time>
      </trkpt>
      <trkpt lat="42.49723" lon="2.40352">
        <ele>1774</ele>
        <time>2018-04-20T12:28:37.000Z</time>
      </trkpt>
      <trkpt lat="42.49714" lon="2.40355">
        <ele>1776</ele>
        <time>2018-04-20T12:28:44.000Z</time>
      </trkpt>
      <trkpt lat="42.49708" lon="2.40365">
        <ele>1777</ele>
        <time>2018-04-20T12:28:53.000Z</time>
      </trkpt>
      <trkpt lat="42.49701" lon="2.40377">
        <ele>1778</ele>
        <time>2018-04-20T12:29:04.000Z</time>
      </trkpt>
      <trkpt lat="42.49695" lon="2.40387">
        <ele>1779</ele>
        <time>2018-04-20T12:29:25.000Z</time>
      </trkpt>
      <trkpt lat="42.49686" lon="2.4039">
        <ele>1781</ele>
        <time>2018-04-20T12:29:33.000Z</time>
      </trkpt>
      <trkpt lat="42.4969" lon="2.40402">
        <ele>1780</ele>
        <time>2018-04-20T12:30:20.000Z</time>
      </trkpt>
      <trkpt lat="42.49698" lon="2.40408">
        <ele>1778</ele>
        <time>2018-04-20T12:30:54.000Z</time>
      </trkpt>
      <trkpt lat="42.49708" lon="2.40411">
        <ele>1774</ele>
        <time>2018-04-20T12:31:59.000Z</time>
      </trkpt>
      <trkpt lat="42.49716" lon="2.40418">
        <ele>1772</ele>
        <time>2018-04-20T12:32:52.000Z</time>
      </trkpt>
      <trkpt lat="42.49718" lon="2.4043">
        <ele>1772</ele>
        <time>2018-04-20T12:33:47.000Z</time>
      </trkpt>
      <trkpt lat="42.49726" lon="2.40441">
        <ele>1771</ele>
        <time>2018-04-20T12:34:47.000Z</time>
      </trkpt>
      <trkpt lat="42.49732" lon="2.40451">
        <ele>1771</ele>
        <time>2018-04-20T12:35:25.000Z</time>
      </trkpt>
      <trkpt lat="42.4974" lon="2.4046">
        <ele>1771</ele>
        <time>2018-04-20T12:35:39.000Z</time>
      </trkpt>
      <trkpt lat="42.49746" lon="2.40469">
        <ele>1771</ele>
        <time>2018-04-20T12:36:15.000Z</time>
      </trkpt>
      <trkpt lat="42.49751" lon="2.4048">
        <ele>1751</ele>
        <time>2018-04-20T12:36:28.000Z</time>
      </trkpt>
      <trkpt lat="42.49758" lon="2.40489">
        <ele>1754</ele>
        <time>2018-04-20T12:36:38.000Z</time>
      </trkpt>
      <trkpt lat="42.49767" lon="2.40495">
        <ele>1752</ele>
        <time>2018-04-20T12:36:57.000Z</time>
      </trkpt>
      <trkpt lat="42.49772" lon="2.40505">
        <ele>1761</ele>
        <time>2018-04-20T12:37:10.000Z</time>
      </trkpt>
      <trkpt lat="42.4978" lon="2.40514">
        <ele>1760</ele>
        <time>2018-04-20T12:37:21.000Z</time>
      </trkpt>
      <trkpt lat="42.49788" lon="2.4052">
        <ele>1758</ele>
        <time>2018-04-20T12:37:30.000Z</time>
      </trkpt>
      <trkpt lat="42.49794" lon="2.40529">
        <ele>1758</ele>
        <time>2018-04-20T12:37:47.000Z</time>
      </trkpt>
      <trkpt lat="42.49802" lon="2.40535">
        <ele>1757</ele>
        <time>2018-04-20T12:38:10.000Z</time>
      </trkpt>
      <trkpt lat="42.49808" lon="2.40547">
        <ele>1758</ele>
        <time>2018-04-20T12:38:30.000Z</time>
      </trkpt>
      <trkpt lat="42.49817" lon="2.40555">
        <ele>1758</ele>
        <time>2018-04-20T12:39:18.000Z</time>
      </trkpt>
      <trkpt lat="42.49823" lon="2.40564">
        <ele>1757</ele>
        <time>2018-04-20T12:39:30.000Z</time>
      </trkpt>
      <trkpt lat="42.49828" lon="2.40575">
        <ele>1757</ele>
        <time>2018-04-20T12:39:44.000Z</time>
      </trkpt>
      <trkpt lat="42.49836" lon="2.40582">
        <ele>1753</ele>
        <time>2018-04-20T12:39:50.000Z</time>
      </trkpt>
      <trkpt lat="42.49846" lon="2.40585">
        <ele>1756</ele>
        <time>2018-04-20T12:40:05.000Z</time>
      </trkpt>
      <trkpt lat="42.49852" lon="2.40595">
        <ele>1756</ele>
        <time>2018-04-20T12:40:23.000Z</time>
      </trkpt>
      <trkpt lat="42.49862" lon="2.40599">
        <ele>1756</ele>
        <time>2018-04-20T12:40:31.000Z</time>
      </trkpt>
      <trkpt lat="42.49871" lon="2.406">
        <ele>1754</ele>
        <time>2018-04-20T12:40:41.000Z</time>
      </trkpt>
      <trkpt lat="42.4988" lon="2.40603">
        <ele>1753</ele>
        <time>2018-04-20T12:40:51.000Z</time>
      </trkpt>
      <trkpt lat="42.4989" lon="2.40605">
        <ele>1751</ele>
        <time>2018-04-20T12:41:11.000Z</time>
      </trkpt>
      <trkpt lat="42.49899" lon="2.40609">
        <ele>1751</ele>
        <time>2018-04-20T12:41:19.000Z</time>
      </trkpt>
      <trkpt lat="42.49909" lon="2.40611">
        <ele>1750</ele>
        <time>2018-04-20T12:41:28.000Z</time>
      </trkpt>
      <trkpt lat="42.49918" lon="2.40614">
        <ele>1734</ele>
        <time>2018-04-20T12:41:36.000Z</time>
      </trkpt>
      <trkpt lat="42.49928" lon="2.40617">
        <ele>1734</ele>
        <time>2018-04-20T12:41:49.000Z</time>
      </trkpt>
      <trkpt lat="42.49936" lon="2.40624">
        <ele>1734</ele>
        <time>2018-04-20T12:41:56.000Z</time>
      </trkpt>
      <trkpt lat="42.49944" lon="2.40632">
        <ele>1734</ele>
        <time>2018-04-20T12:42:09.000Z</time>
      </trkpt>
      <trkpt lat="42.49949" lon="2.40643">
        <ele>1734</ele>
        <time>2018-04-20T12:42:20.000Z</time>
      </trkpt>
      <trkpt lat="42.49951" lon="2.40655">
        <ele>1735</ele>
        <time>2018-04-20T12:42:30.000Z</time>
      </trkpt>
      <trkpt lat="42.49956" lon="2.40667">
        <ele>1734</ele>
        <time>2018-04-20T12:42:40.000Z</time>
      </trkpt>
      <trkpt lat="42.49959" lon="2.4068">
        <ele>1738</ele>
        <time>2018-04-20T12:42:50.000Z</time>
      </trkpt>
      <trkpt lat="42.49956" lon="2.40693">
        <ele>1739</ele>
        <time>2018-04-20T12:43:01.000Z</time>
      </trkpt>
      <trkpt lat="42.49958" lon="2.40706">
        <ele>1739</ele>
        <time>2018-04-20T12:43:06.000Z</time>
      </trkpt>
      <trkpt lat="42.49962" lon="2.40719">
        <ele>1738</ele>
        <time>2018-04-20T12:43:11.000Z</time>
      </trkpt>
      <trkpt lat="42.49967" lon="2.4073">
        <ele>1737</ele>
        <time>2018-04-20T12:43:22.000Z</time>
      </trkpt>
      <trkpt lat="42.49973" lon="2.4074">
        <ele>1735</ele>
        <time>2018-04-20T12:43:31.000Z</time>
      </trkpt>
      <trkpt lat="42.49972" lon="2.40753">
        <ele>1735</ele>
        <time>2018-04-20T12:43:53.000Z</time>
      </trkpt>
      <trkpt lat="42.49976" lon="2.40764">
        <ele>1734</ele>
        <time>2018-04-20T12:44:03.000Z</time>
      </trkpt>
      <trkpt lat="42.4998" lon="2.40779">
        <ele>1734</ele>
        <time>2018-04-20T12:44:18.999Z</time>
      </trkpt>
      <trkpt lat="42.49985" lon="2.40793">
        <ele>1734</ele>
        <time>2018-04-20T12:44:23.999Z</time>
      </trkpt>
      <trkpt lat="42.49992" lon="2.40805">
        <ele>1732</ele>
        <time>2018-04-20T12:44:46.999Z</time>
      </trkpt>
      <trkpt lat="42.49997" lon="2.40816">
        <ele>1730</ele>
        <time>2018-04-20T12:44:56.999Z</time>
      </trkpt>
      <trkpt lat="42.5" lon="2.40828">
        <ele>1726</ele>
        <time>2018-04-20T12:45:03.999Z</time>
      </trkpt>
      <trkpt lat="42.50007" lon="2.40838">
        <ele>1721</ele>
        <time>2018-04-20T12:47:15.999Z</time>
      </trkpt>
      <trkpt lat="42.50011" lon="2.4085">
        <ele>1719</ele>
        <time>2018-04-20T12:47:24.999Z</time>
      </trkpt>
      <trkpt lat="42.50012" lon="2.40863">
        <ele>1717</ele>
        <time>2018-04-20T12:47:33.999Z</time>
      </trkpt>
      <trkpt lat="42.50011" lon="2.40875">
        <ele>1717</ele>
        <time>2018-04-20T12:49:45.999Z</time>
      </trkpt>
      <trkpt lat="42.5002" lon="2.40872">
        <ele>1717</ele>
        <time>2018-04-20T12:50:38.999Z</time>
      </trkpt>
      <trkpt lat="42.50027" lon="2.40862">
        <ele>1717</ele>
        <time>2018-04-20T12:50:46.999Z</time>
      </trkpt>
      <trkpt lat="42.50031" lon="2.4085">
        <ele>1717</ele>
        <time>2018-04-20T12:51:10.999Z</time>
      </trkpt>
      <trkpt lat="42.50041" lon="2.40848">
        <ele>1716</ele>
        <time>2018-04-20T12:51:21.999Z</time>
      </trkpt>
      <trkpt lat="42.5005" lon="2.40844">
        <ele>1715</ele>
        <time>2018-04-20T12:51:48.999Z</time>
      </trkpt>
      <trkpt lat="42.50058" lon="2.40841">
        <ele>1714</ele>
        <time>2018-04-20T12:51:56.999Z</time>
      </trkpt>
      <trkpt lat="42.50068" lon="2.40839">
        <ele>1713</ele>
        <time>2018-04-20T12:52:09.999Z</time>
      </trkpt>
      <trkpt lat="42.50075" lon="2.40832">
        <ele>1711</ele>
        <time>2018-04-20T12:52:19.999Z</time>
      </trkpt>
      <trkpt lat="42.50085" lon="2.40832">
        <ele>1709</ele>
        <time>2018-04-20T12:52:36.999Z</time>
      </trkpt>
      <trkpt lat="42.50094" lon="2.40825">
        <ele>1703</ele>
        <time>2018-04-20T12:52:51.999Z</time>
      </trkpt>
      <trkpt lat="42.50103" lon="2.40822">
        <ele>1700</ele>
        <time>2018-04-20T12:52:59.999Z</time>
      </trkpt>
      <trkpt lat="42.50111" lon="2.40818">
        <ele>1697</ele>
        <time>2018-04-20T12:53:10.999Z</time>
      </trkpt>
      <trkpt lat="42.50121" lon="2.40816">
        <ele>1695</ele>
        <time>2018-04-20T12:53:26.999Z</time>
      </trkpt>
      <trkpt lat="42.5013" lon="2.4081">
        <ele>1694</ele>
        <time>2018-04-20T12:53:37.999Z</time>
      </trkpt>
      <trkpt lat="42.50139" lon="2.40804">
        <ele>1692</ele>
        <time>2018-04-20T12:53:48.999Z</time>
      </trkpt>
      <trkpt lat="42.50145" lon="2.40795">
        <ele>1692</ele>
        <time>2018-04-20T12:53:59.999Z</time>
      </trkpt>
      <trkpt lat="42.50151" lon="2.40785">
        <ele>1691</ele>
        <time>2018-04-20T12:54:08.999Z</time>
      </trkpt>
      <trkpt lat="42.5016" lon="2.4078">
        <ele>1690</ele>
        <time>2018-04-20T13:07:17.999Z</time>
      </trkpt>
      <trkpt lat="42.50151" lon="2.40784">
        <ele>1691</ele>
        <time>2018-04-20T13:20:36.999Z</time>
      </trkpt>
      <trkpt lat="42.50141" lon="2.40782">
        <ele>1692</ele>
        <time>2018-04-20T13:20:44.999Z</time>
      </trkpt>
      <trkpt lat="42.50131" lon="2.40781">
        <ele>1693</ele>
        <time>2018-04-20T13:20:52.999Z</time>
      </trkpt>
      <trkpt lat="42.50122" lon="2.40778">
        <ele>1693</ele>
        <time>2018-04-20T13:20:59.999Z</time>
      </trkpt>
      <trkpt lat="42.50114" lon="2.40772">
        <ele>1694</ele>
        <time>2018-04-20T13:21:07.999Z</time>
      </trkpt>
      <trkpt lat="42.50108" lon="2.40763">
        <ele>1694</ele>
        <time>2018-04-20T13:21:18.999Z</time>
      </trkpt>
      <trkpt lat="42.50102" lon="2.40752">
        <ele>1694</ele>
        <time>2018-04-20T13:21:28.999Z</time>
      </trkpt>
      <trkpt lat="42.50097" lon="2.40742">
        <ele>1689</ele>
        <time>2018-04-20T13:21:37.999Z</time>
      </trkpt>
      <trkpt lat="42.50089" lon="2.40733">
        <ele>1689</ele>
        <time>2018-04-20T13:21:44.999Z</time>
      </trkpt>
      <trkpt lat="42.50084" lon="2.40723">
        <ele>1687</ele>
        <time>2018-04-20T13:21:54.999Z</time>
      </trkpt>
      <trkpt lat="42.50079" lon="2.40712">
        <ele>1701</ele>
        <time>2018-04-20T13:22:06.999Z</time>
      </trkpt>
      <trkpt lat="42.5008" lon="2.40698">
        <ele>1699</ele>
        <time>2018-04-20T13:22:15.999Z</time>
      </trkpt>
      <trkpt lat="42.50077" lon="2.40686">
        <ele>1697</ele>
        <time>2018-04-20T13:22:22.999Z</time>
      </trkpt>
      <trkpt lat="42.50075" lon="2.40673">
        <ele>1693</ele>
        <time>2018-04-20T13:22:34.999Z</time>
      </trkpt>
      <trkpt lat="42.50074" lon="2.40661">
        <ele>1691</ele>
        <time>2018-04-20T13:22:42.999Z</time>
      </trkpt>
      <trkpt lat="42.50068" lon="2.40651">
        <ele>1694</ele>
        <time>2018-04-20T13:22:54.999Z</time>
      </trkpt>
      <trkpt lat="42.50068" lon="2.40639">
        <ele>1695</ele>
        <time>2018-04-20T13:23:08.999Z</time>
      </trkpt>
      <trkpt lat="42.50072" lon="2.40628">
        <ele>1695</ele>
        <time>2018-04-20T13:23:26.999Z</time>
      </trkpt>
      <trkpt lat="42.50078" lon="2.40617">
        <ele>1693</ele>
        <time>2018-04-20T13:23:34.999Z</time>
      </trkpt>
      <trkpt lat="42.50082" lon="2.40606">
        <ele>1690</ele>
        <time>2018-04-20T13:23:45.999Z</time>
      </trkpt>
      <trkpt lat="42.50088" lon="2.40595">
        <ele>1673</ele>
        <time>2018-04-20T13:24:03.999Z</time>
      </trkpt>
      <trkpt lat="42.50092" lon="2.40584">
        <ele>1674</ele>
        <time>2018-04-20T13:24:07.999Z</time>
      </trkpt>
      <trkpt lat="42.50093" lon="2.40571">
        <ele>1665</ele>
        <time>2018-04-20T13:24:19.999Z</time>
      </trkpt>
      <trkpt lat="42.50094" lon="2.40557">
        <ele>1658</ele>
        <time>2018-04-20T13:24:28.999Z</time>
      </trkpt>
      <trkpt lat="42.50095" lon="2.40544">
        <ele>1655</ele>
        <time>2018-04-20T13:24:37.999Z</time>
      </trkpt>
      <trkpt lat="42.50094" lon="2.40531">
        <ele>1654</ele>
        <time>2018-04-20T13:24:48.999Z</time>
      </trkpt>
      <trkpt lat="42.5009" lon="2.40519">
        <ele>1655</ele>
        <time>2018-04-20T13:24:56.999Z</time>
      </trkpt>
      <trkpt lat="42.50088" lon="2.40502">
        <ele>1658</ele>
        <time>2018-04-20T13:25:02.999Z</time>
      </trkpt>
      <trkpt lat="42.50085" lon="2.40491">
        <ele>1650</ele>
        <time>2018-04-20T13:25:08.999Z</time>
      </trkpt>
      <trkpt lat="42.50079" lon="2.40481">
        <ele>1658</ele>
        <time>2018-04-20T13:25:25.999Z</time>
      </trkpt>
      <trkpt lat="42.50076" lon="2.40469">
        <ele>1655</ele>
        <time>2018-04-20T13:25:32.999Z</time>
      </trkpt>
      <trkpt lat="42.50076" lon="2.40456">
        <ele>1652</ele>
        <time>2018-04-20T13:25:40.999Z</time>
      </trkpt>
      <trkpt lat="42.50072" lon="2.40444">
        <ele>1648</ele>
        <time>2018-04-20T13:25:49.999Z</time>
      </trkpt>
      <trkpt lat="42.50067" lon="2.40432">
        <ele>1645</ele>
        <time>2018-04-20T13:25:56.999Z</time>
      </trkpt>
      <trkpt lat="42.5006" lon="2.40423">
        <ele>1645</ele>
        <time>2018-04-20T13:26:03.999Z</time>
      </trkpt>
      <trkpt lat="42.50051" lon="2.4042">
        <ele>1648</ele>
        <time>2018-04-20T13:26:13.999Z</time>
      </trkpt>
      <trkpt lat="42.50041" lon="2.4042">
        <ele>1651</ele>
        <time>2018-04-20T13:26:24.999Z</time>
      </trkpt>
      <trkpt lat="42.50034" lon="2.40412">
        <ele>1641</ele>
        <time>2018-04-20T13:26:34.999Z</time>
      </trkpt>
      <trkpt lat="42.50027" lon="2.40404">
        <ele>1643</ele>
        <time>2018-04-20T13:26:48.999Z</time>
      </trkpt>
      <trkpt lat="42.50018" lon="2.40398">
        <ele>1645</ele>
        <time>2018-04-20T13:26:56.999Z</time>
      </trkpt>
      <trkpt lat="42.50011" lon="2.40388">
        <ele>1644</ele>
        <time>2018-04-20T13:27:21.999Z</time>
      </trkpt>
      <trkpt lat="42.50003" lon="2.40381">
        <ele>1644</ele>
        <time>2018-04-20T13:27:42.999Z</time>
      </trkpt>
      <trkpt lat="42.50009" lon="2.40373">
        <ele>1643</ele>
        <time>2018-04-20T13:28:17.999Z</time>
      </trkpt>
      <trkpt lat="42.50017" lon="2.40366">
        <ele>1642</ele>
        <time>2018-04-20T13:29:10.999Z</time>
      </trkpt>
      <trkpt lat="42.50024" lon="2.40359">
        <ele>1641</ele>
        <time>2018-04-20T13:29:32.999Z</time>
      </trkpt>
      <trkpt lat="42.5003" lon="2.40348">
        <ele>1640</ele>
        <time>2018-04-20T13:29:41.999Z</time>
      </trkpt>
      <trkpt lat="42.5004" lon="2.40342">
        <ele>1638</ele>
        <time>2018-04-20T13:29:49.999Z</time>
      </trkpt>
      <trkpt lat="42.50048" lon="2.40338">
        <ele>1635</ele>
        <time>2018-04-20T13:29:54.999Z</time>
      </trkpt>
      <trkpt lat="42.50042" lon="2.4033">
        <ele>1645</ele>
        <time>2018-04-20T13:30:06.999Z</time>
      </trkpt>
      <trkpt lat="42.50034" lon="2.40317">
        <ele>1648</ele>
        <time>2018-04-20T13:30:09.999Z</time>
      </trkpt>
      <trkpt lat="42.50036" lon="2.40334">
        <ele>1639</ele>
        <time>2018-04-20T13:30:18.999Z</time>
      </trkpt>
      <trkpt lat="42.50043" lon="2.40344">
        <ele>1637</ele>
        <time>2018-04-20T13:30:26.999Z</time>
      </trkpt>
      <trkpt lat="42.50052" lon="2.40341">
        <ele>1634</ele>
        <time>2018-04-20T13:30:48.999Z</time>
      </trkpt>
      <trkpt lat="42.50061" lon="2.40342">
        <ele>1632</ele>
        <time>2018-04-20T13:31:01.999Z</time>
      </trkpt>
      <trkpt lat="42.50069" lon="2.40333">
        <ele>1633</ele>
        <time>2018-04-20T13:31:15.999Z</time>
      </trkpt>
      <trkpt lat="42.50075" lon="2.40323">
        <ele>1632</ele>
        <time>2018-04-20T13:31:26.999Z</time>
      </trkpt>
      <trkpt lat="42.50083" lon="2.40316">
        <ele>1635</ele>
        <time>2018-04-20T13:31:31.999Z</time>
      </trkpt>
      <trkpt lat="42.50091" lon="2.40309">
        <ele>1620</ele>
        <time>2018-04-20T13:31:36.999Z</time>
      </trkpt>
      <trkpt lat="42.50099" lon="2.40301">
        <ele>1620</ele>
        <time>2018-04-20T13:31:40.999Z</time>
      </trkpt>
      <trkpt lat="42.50107" lon="2.40294">
        <ele>1620</ele>
        <time>2018-04-20T13:31:55.999Z</time>
      </trkpt>
      <trkpt lat="42.50114" lon="2.40288">
        <ele>1620</ele>
        <time>2018-04-20T13:32:04.999Z</time>
      </trkpt>
      <trkpt lat="42.50123" lon="2.40283">
        <ele>1618</ele>
        <time>2018-04-20T13:32:29.000Z</time>
      </trkpt>
      <trkpt lat="42.50133" lon="2.40282">
        <ele>1617</ele>
        <time>2018-04-20T13:32:48.000Z</time>
      </trkpt>
      <trkpt lat="42.50143" lon="2.40284">
        <ele>1614</ele>
        <time>2018-04-20T13:33:04.000Z</time>
      </trkpt>
      <trkpt lat="42.50151" lon="2.40278">
        <ele>1614</ele>
        <time>2018-04-20T13:33:13.000Z</time>
      </trkpt>
      <trkpt lat="42.50158" lon="2.4027">
        <ele>1614</ele>
        <time>2018-04-20T13:33:19.000Z</time>
      </trkpt>
      <trkpt lat="42.50165" lon="2.4026">
        <ele>1613</ele>
        <time>2018-04-20T13:33:29.000Z</time>
      </trkpt>
      <trkpt lat="42.50174" lon="2.40251">
        <ele>1604</ele>
        <time>2018-04-20T13:33:38.000Z</time>
      </trkpt>
      <trkpt lat="42.50179" lon="2.4024">
        <ele>1608</ele>
        <time>2018-04-20T13:33:45.000Z</time>
      </trkpt>
      <trkpt lat="42.50185" lon="2.40227">
        <ele>1608</ele>
        <time>2018-04-20T13:33:48.000Z</time>
      </trkpt>
      <trkpt lat="42.50193" lon="2.40221">
        <ele>1607</ele>
        <time>2018-04-20T13:34:01.000Z</time>
      </trkpt>
      <trkpt lat="42.502" lon="2.40212">
        <ele>1607</ele>
        <time>2018-04-20T13:34:10.000Z</time>
      </trkpt>
      <trkpt lat="42.50206" lon="2.40204">
        <ele>1607</ele>
        <time>2018-04-20T13:34:19.000Z</time>
      </trkpt>
      <trkpt lat="42.50216" lon="2.40199">
        <ele>1605</ele>
        <time>2018-04-20T13:34:34.000Z</time>
      </trkpt>
      <trkpt lat="42.50222" lon="2.40189">
        <ele>1605</ele>
        <time>2018-04-20T13:34:45.000Z</time>
      </trkpt>
      <trkpt lat="42.5023" lon="2.40181">
        <ele>1605</ele>
        <time>2018-04-20T13:34:55.000Z</time>
      </trkpt>
      <trkpt lat="42.50238" lon="2.40178">
        <ele>1603</ele>
        <time>2018-04-20T13:35:02.000Z</time>
      </trkpt>
      <trkpt lat="42.50247" lon="2.40176">
        <ele>1602</ele>
        <time>2018-04-20T13:35:08.000Z</time>
      </trkpt>
      <trkpt lat="42.50255" lon="2.40166">
        <ele>1600</ele>
        <time>2018-04-20T13:35:17.000Z</time>
      </trkpt>
      <trkpt lat="42.50261" lon="2.40153">
        <ele>1598</ele>
        <time>2018-04-20T13:35:23.000Z</time>
      </trkpt>
      <trkpt lat="42.5027" lon="2.40148">
        <ele>1596</ele>
        <time>2018-04-20T13:35:29.000Z</time>
      </trkpt>
      <trkpt lat="42.50279" lon="2.40137">
        <ele>1595</ele>
        <time>2018-04-20T13:35:32.000Z</time>
      </trkpt>
      <trkpt lat="42.50285" lon="2.40127">
        <ele>1595</ele>
        <time>2018-04-20T13:35:38.000Z</time>
      </trkpt>
      <trkpt lat="42.50293" lon="2.4012">
        <ele>1594</ele>
        <time>2018-04-20T13:35:50.000Z</time>
      </trkpt>
      <trkpt lat="42.50301" lon="2.40111">
        <ele>1593</ele>
        <time>2018-04-20T13:35:55.000Z</time>
      </trkpt>
      <trkpt lat="42.50309" lon="2.40106">
        <ele>1591</ele>
        <time>2018-04-20T13:36:03.000Z</time>
      </trkpt>
      <trkpt lat="42.50319" lon="2.40104">
        <ele>1589</ele>
        <time>2018-04-20T13:36:16.000Z</time>
      </trkpt>
      <trkpt lat="42.50327" lon="2.40099">
        <ele>1587</ele>
        <time>2018-04-20T13:36:30.000Z</time>
      </trkpt>
      <trkpt lat="42.50332" lon="2.40088">
        <ele>1584</ele>
        <time>2018-04-20T13:36:38.000Z</time>
      </trkpt>
      <trkpt lat="42.50341" lon="2.40076">
        <ele>1576</ele>
        <time>2018-04-20T13:36:45.000Z</time>
      </trkpt>
      <trkpt lat="42.50348" lon="2.40067">
        <ele>1572</ele>
        <time>2018-04-20T13:36:52.000Z</time>
      </trkpt>
      <trkpt lat="42.50352" lon="2.40057">
        <ele>1570</ele>
        <time>2018-04-20T13:37:16.000Z</time>
      </trkpt>
      <trkpt lat="42.50358" lon="2.40046">
        <ele>1569</ele>
        <time>2018-04-20T13:37:29.000Z</time>
      </trkpt>
      <trkpt lat="42.50361" lon="2.40034">
        <ele>1570</ele>
        <time>2018-04-20T13:37:35.000Z</time>
      </trkpt>
      <trkpt lat="42.50365" lon="2.40023">
        <ele>1570</ele>
        <time>2018-04-20T13:37:46.000Z</time>
      </trkpt>
      <trkpt lat="42.50373" lon="2.40015">
        <ele>1568</ele>
        <time>2018-04-20T13:37:53.000Z</time>
      </trkpt>
      <trkpt lat="42.5038" lon="2.40006">
        <ele>1565</ele>
        <time>2018-04-20T13:37:59.000Z</time>
      </trkpt>
      <trkpt lat="42.50387" lon="2.39997">
        <ele>1565</ele>
        <time>2018-04-20T13:38:06.000Z</time>
      </trkpt>
      <trkpt lat="42.50394" lon="2.39984">
        <ele>1563</ele>
        <time>2018-04-20T13:38:12.000Z</time>
      </trkpt>
      <trkpt lat="42.50396" lon="2.39972">
        <ele>1563</ele>
        <time>2018-04-20T13:38:18.000Z</time>
      </trkpt>
      <trkpt lat="42.50395" lon="2.39959">
        <ele>1563</ele>
        <time>2018-04-20T13:38:27.000Z</time>
      </trkpt>
      <trkpt lat="42.50396" lon="2.39946">
        <ele>1562</ele>
        <time>2018-04-20T13:38:37.000Z</time>
      </trkpt>
      <trkpt lat="42.50395" lon="2.39933">
        <ele>1561</ele>
        <time>2018-04-20T13:38:46.000Z</time>
      </trkpt>
      <trkpt lat="42.50396" lon="2.39919">
        <ele>1558</ele>
        <time>2018-04-20T13:39:00.000Z</time>
      </trkpt>
      <trkpt lat="42.50394" lon="2.39907">
        <ele>1552</ele>
        <time>2018-04-20T13:39:06.000Z</time>
      </trkpt>
      <trkpt lat="42.50394" lon="2.39894">
        <ele>1552</ele>
        <time>2018-04-20T13:39:14.000Z</time>
      </trkpt>
      <trkpt lat="42.50394" lon="2.39881">
        <ele>1551</ele>
        <time>2018-04-20T13:39:29.000Z</time>
      </trkpt>
      <trkpt lat="42.50396" lon="2.39869">
        <ele>1548</ele>
        <time>2018-04-20T13:39:38.000Z</time>
      </trkpt>
      <trkpt lat="42.50395" lon="2.39856">
        <ele>1546</ele>
        <time>2018-04-20T13:39:45.000Z</time>
      </trkpt>
      <trkpt lat="42.50393" lon="2.39842">
        <ele>1543</ele>
        <time>2018-04-20T13:39:50.000Z</time>
      </trkpt>
      <trkpt lat="42.50387" lon="2.39831">
        <ele>1536</ele>
        <time>2018-04-20T13:39:56.000Z</time>
      </trkpt>
      <trkpt lat="42.50385" lon="2.39818">
        <ele>1537</ele>
        <time>2018-04-20T13:40:03.000Z</time>
      </trkpt>
      <trkpt lat="42.50378" lon="2.39808">
        <ele>1539</ele>
        <time>2018-04-20T13:40:10.000Z</time>
      </trkpt>
      <trkpt lat="42.50371" lon="2.39798">
        <ele>1540</ele>
        <time>2018-04-20T13:40:16.000Z</time>
      </trkpt>
      <trkpt lat="42.50361" lon="2.39791">
        <ele>1542</ele>
        <time>2018-04-20T13:40:21.000Z</time>
      </trkpt>
      <trkpt lat="42.50353" lon="2.39783">
        <ele>1543</ele>
        <time>2018-04-20T13:40:28.000Z</time>
      </trkpt>
      <trkpt lat="42.50344" lon="2.39776">
        <ele>1544</ele>
        <time>2018-04-20T13:40:34.000Z</time>
      </trkpt>
      <trkpt lat="42.50335" lon="2.39772">
        <ele>1545</ele>
        <time>2018-04-20T13:40:47.000Z</time>
      </trkpt>
      <trkpt lat="42.50326" lon="2.39768">
        <ele>1562</ele>
        <time>2018-04-20T13:40:54.000Z</time>
      </trkpt>
      <trkpt lat="42.50317" lon="2.39764">
        <ele>1563</ele>
        <time>2018-04-20T13:41:09.000Z</time>
      </trkpt>
      <trkpt lat="42.50309" lon="2.39757">
        <ele>1565</ele>
        <time>2018-04-20T13:41:40.000Z</time>
      </trkpt>
      <trkpt lat="42.50301" lon="2.39766">
        <ele>1568</ele>
        <time>2018-04-20T13:41:53.000Z</time>
      </trkpt>
      <trkpt lat="42.5029" lon="2.3977">
        <ele>1571</ele>
        <time>2018-04-20T13:42:00.000Z</time>
      </trkpt>
      <trkpt lat="42.50286" lon="2.39758">
        <ele>1572</ele>
        <time>2018-04-20T13:42:45.000Z</time>
      </trkpt>
      <trkpt lat="42.50295" lon="2.39764">
        <ele>1570</ele>
        <time>2018-04-20T13:43:11.000Z</time>
      </trkpt>
      <trkpt lat="42.50303" lon="2.39771">
        <ele>1568</ele>
        <time>2018-04-20T13:43:19.000Z</time>
      </trkpt>
      <trkpt lat="42.50312" lon="2.39776">
        <ele>1567</ele>
        <time>2018-04-20T13:43:38.000Z</time>
      </trkpt>
      <trkpt lat="42.50322" lon="2.39778">
        <ele>1565</ele>
        <time>2018-04-20T13:43:47.000Z</time>
      </trkpt>
      <trkpt lat="42.50332" lon="2.39775">
        <ele>1564</ele>
        <time>2018-04-20T13:43:56.000Z</time>
      </trkpt>
      <trkpt lat="42.50341" lon="2.39769">
        <ele>1545</ele>
        <time>2018-04-20T13:43:59.000Z</time>
      </trkpt>
      <trkpt lat="42.50346" lon="2.39756">
        <ele>1545</ele>
        <time>2018-04-20T13:44:01.000Z</time>
      </trkpt>
      <trkpt lat="42.50354" lon="2.39753">
        <ele>1543</ele>
        <time>2018-04-20T13:44:10.000Z</time>
      </trkpt>
      <trkpt lat="42.50362" lon="2.39745">
        <ele>1545</ele>
        <time>2018-04-20T13:44:41.000Z</time>
      </trkpt>
      <trkpt lat="42.5037" lon="2.39738">
        <ele>1544</ele>
        <time>2018-04-20T13:44:55.000Z</time>
      </trkpt>
      <trkpt lat="42.50376" lon="2.39725">
        <ele>1543</ele>
        <time>2018-04-20T13:45:12.000Z</time>
      </trkpt>
      <trkpt lat="42.50383" lon="2.39716">
        <ele>1543</ele>
        <time>2018-04-20T13:45:19.000Z</time>
      </trkpt>
      <trkpt lat="42.50392" lon="2.39712">
        <ele>1542</ele>
        <time>2018-04-20T13:45:33.000Z</time>
      </trkpt>
      <trkpt lat="42.50401" lon="2.39711">
        <ele>1541</ele>
        <time>2018-04-20T13:45:43.000Z</time>
      </trkpt>
      <trkpt lat="42.50411" lon="2.39706">
        <ele>1541</ele>
        <time>2018-04-20T13:45:51.000Z</time>
      </trkpt>
      <trkpt lat="42.50416" lon="2.39696">
        <ele>1542</ele>
        <time>2018-04-20T13:46:01.000Z</time>
      </trkpt>
      <trkpt lat="42.50424" lon="2.39686">
        <ele>1528</ele>
        <time>2018-04-20T13:46:07.000Z</time>
      </trkpt>
      <trkpt lat="42.50431" lon="2.39676">
        <ele>1529</ele>
        <time>2018-04-20T13:46:18.000Z</time>
      </trkpt>
      <trkpt lat="42.50438" lon="2.39668">
        <ele>1527</ele>
        <time>2018-04-20T13:46:28.000Z</time>
      </trkpt>
      <trkpt lat="42.50446" lon="2.39661">
        <ele>1538</ele>
        <time>2018-04-20T13:46:37.000Z</time>
      </trkpt>
      <trkpt lat="42.50456" lon="2.39658">
        <ele>1537</ele>
        <time>2018-04-20T13:46:51.000Z</time>
      </trkpt>
      <trkpt lat="42.50464" lon="2.39652">
        <ele>1535</ele>
        <time>2018-04-20T13:46:58.000Z</time>
      </trkpt>
      <trkpt lat="42.50474" lon="2.39646">
        <ele>1533</ele>
        <time>2018-04-20T13:47:07.000Z</time>
      </trkpt>
      <trkpt lat="42.50483" lon="2.39644">
        <ele>1531</ele>
        <time>2018-04-20T13:47:19.000Z</time>
      </trkpt>
      <trkpt lat="42.50494" lon="2.39645">
        <ele>1529</ele>
        <time>2018-04-20T13:47:32.000Z</time>
      </trkpt>
      <trkpt lat="42.50503" lon="2.39644">
        <ele>1512</ele>
        <time>2018-04-20T13:47:38.000Z</time>
      </trkpt>
      <trkpt lat="42.50512" lon="2.39638">
        <ele>1512</ele>
        <time>2018-04-20T13:47:44.000Z</time>
      </trkpt>
      <trkpt lat="42.50522" lon="2.3963">
        <ele>1511</ele>
        <time>2018-04-20T13:47:50.000Z</time>
      </trkpt>
      <trkpt lat="42.50528" lon="2.39619">
        <ele>1511</ele>
        <time>2018-04-20T13:47:53.000Z</time>
      </trkpt>
      <trkpt lat="42.50537" lon="2.39617">
        <ele>1510</ele>
        <time>2018-04-20T13:49:09.000Z</time>
      </trkpt>
      <trkpt lat="42.50544" lon="2.39625">
        <ele>1508</ele>
        <time>2018-04-20T13:49:36.000Z</time>
      </trkpt>
      <trkpt lat="42.50553" lon="2.3963">
        <ele>1507</ele>
        <time>2018-04-20T13:50:34.000Z</time>
      </trkpt>
      <trkpt lat="42.50556" lon="2.39642">
        <ele>1506</ele>
        <time>2018-04-20T13:51:10.000Z</time>
      </trkpt>
      <trkpt lat="42.50555" lon="2.39654">
        <ele>1505</ele>
        <time>2018-04-20T13:56:25.000Z</time>
      </trkpt>
      <trkpt lat="42.50563" lon="2.39662">
        <ele>1503</ele>
        <time>2018-04-20T13:56:49.000Z</time>
      </trkpt>
      <trkpt lat="42.50569" lon="2.39651">
        <ele>1503</ele>
        <time>2018-04-20T13:57:02.000Z</time>
      </trkpt>
      <trkpt lat="42.50577" lon="2.3966">
        <ele>1500</ele>
        <time>2018-04-20T13:57:09.000Z</time>
      </trkpt>
      <trkpt lat="42.50581" lon="2.39673">
        <ele>1496</ele>
        <time>2018-04-20T13:57:19.000Z</time>
      </trkpt>
      <trkpt lat="42.50584" lon="2.3966">
        <ele>1493</ele>
        <time>2018-04-20T13:57:31.000Z</time>
      </trkpt>
      <trkpt lat="42.50585" lon="2.39646">
        <ele>1488</ele>
        <time>2018-04-20T13:57:37.000Z</time>
      </trkpt>
      <trkpt lat="42.50594" lon="2.39653">
        <ele>1488</ele>
        <time>2018-04-20T13:57:45.000Z</time>
      </trkpt>
      <trkpt lat="42.506" lon="2.39665">
        <ele>1488</ele>
        <time>2018-04-20T13:57:53.000Z</time>
      </trkpt>
      <trkpt lat="42.50599" lon="2.39652">
        <ele>1487</ele>
        <time>2018-04-20T13:58:04.000Z</time>
      </trkpt>
      <trkpt lat="42.50599" lon="2.39639">
        <ele>1486</ele>
        <time>2018-04-20T13:58:08.000Z</time>
      </trkpt>
      <trkpt lat="42.506" lon="2.39626">
        <ele>1485</ele>
        <time>2018-04-20T13:58:13.000Z</time>
      </trkpt>
      <trkpt lat="42.50599" lon="2.39613">
        <ele>1486</ele>
        <time>2018-04-20T13:58:29.000Z</time>
      </trkpt>
      <trkpt lat="42.50595" lon="2.39602">
        <ele>1487</ele>
        <time>2018-04-20T13:58:37.000Z</time>
      </trkpt>
      <trkpt lat="42.50589" lon="2.3959">
        <ele>1490</ele>
        <time>2018-04-20T13:58:45.000Z</time>
      </trkpt>
      <trkpt lat="42.50585" lon="2.39578">
        <ele>1494</ele>
        <time>2018-04-20T13:59:02.000Z</time>
      </trkpt>
      <trkpt lat="42.50583" lon="2.3959">
        <ele>1497</ele>
        <time>2018-04-20T13:59:30.000Z</time>
      </trkpt>
      <trkpt lat="42.50591" lon="2.39598">
        <ele>1488</ele>
        <time>2018-04-20T13:59:48.000Z</time>
      </trkpt>
      <trkpt lat="42.50598" lon="2.39606">
        <ele>1486</ele>
        <time>2018-04-20T13:59:56.000Z</time>
      </trkpt>
      <trkpt lat="42.50607" lon="2.39611">
        <ele>1485</ele>
        <time>2018-04-20T14:00:05.000Z</time>
      </trkpt>
      <trkpt lat="42.50617" lon="2.39609">
        <ele>1484</ele>
        <time>2018-04-20T14:00:12.000Z</time>
      </trkpt>
      <trkpt lat="42.50626" lon="2.39614">
        <ele>1482</ele>
        <time>2018-04-20T14:00:33.000Z</time>
      </trkpt>
      <trkpt lat="42.50634" lon="2.39619">
        <ele>1481</ele>
        <time>2018-04-20T14:00:40.000Z</time>
      </trkpt>
      <trkpt lat="42.50644" lon="2.3962">
        <ele>1479</ele>
        <time>2018-04-20T14:00:46.000Z</time>
      </trkpt>
      <trkpt lat="42.50654" lon="2.39621">
        <ele>1478</ele>
        <time>2018-04-20T14:01:01.000Z</time>
      </trkpt>
      <trkpt lat="42.50663" lon="2.39627">
        <ele>1476</ele>
        <time>2018-04-20T14:01:15.000Z</time>
      </trkpt>
      <trkpt lat="42.50672" lon="2.39627">
        <ele>1463</ele>
        <time>2018-04-20T14:01:20.000Z</time>
      </trkpt>
      <trkpt lat="42.50681" lon="2.39631">
        <ele>1462</ele>
        <time>2018-04-20T14:01:24.000Z</time>
      </trkpt>
      <trkpt lat="42.50691" lon="2.39635">
        <ele>1461</ele>
        <time>2018-04-20T14:01:31.000Z</time>
      </trkpt>
      <trkpt lat="42.50701" lon="2.3963">
        <ele>1461</ele>
        <time>2018-04-20T14:01:38.000Z</time>
      </trkpt>
      <trkpt lat="42.5071" lon="2.39626">
        <ele>1460</ele>
        <time>2018-04-20T14:01:42.000Z</time>
      </trkpt>
      <trkpt lat="42.50718" lon="2.3962">
        <ele>1461</ele>
        <time>2018-04-20T14:01:46.000Z</time>
      </trkpt>
      <trkpt lat="42.50726" lon="2.39614">
        <ele>1461</ele>
        <time>2018-04-20T14:01:53.000Z</time>
      </trkpt>
      <trkpt lat="42.50736" lon="2.39613">
        <ele>1461</ele>
        <time>2018-04-20T14:02:00.000Z</time>
      </trkpt>
      <trkpt lat="42.50743" lon="2.39605">
        <ele>1463</ele>
        <time>2018-04-20T14:02:09.000Z</time>
      </trkpt>
      <trkpt lat="42.50753" lon="2.39603">
        <ele>1456</ele>
        <time>2018-04-20T14:02:23.000Z</time>
      </trkpt>
      <trkpt lat="42.50762" lon="2.39598">
        <ele>1457</ele>
        <time>2018-04-20T14:02:26.000Z</time>
      </trkpt>
      <trkpt lat="42.50772" lon="2.39595">
        <ele>1455</ele>
        <time>2018-04-20T14:02:31.000Z</time>
      </trkpt>
      <trkpt lat="42.50781" lon="2.39596">
        <ele>1452</ele>
        <time>2018-04-20T14:02:39.000Z</time>
      </trkpt>
      <trkpt lat="42.50791" lon="2.39592">
        <ele>1451</ele>
        <time>2018-04-20T14:02:49.000Z</time>
      </trkpt>
      <trkpt lat="42.50801" lon="2.39589">
        <ele>1451</ele>
        <time>2018-04-20T14:03:00.000Z</time>
      </trkpt>
      <trkpt lat="42.50806" lon="2.39579">
        <ele>1470</ele>
        <time>2018-04-20T14:03:17.000Z</time>
      </trkpt>
      <trkpt lat="42.50796" lon="2.39578">
        <ele>1473</ele>
        <time>2018-04-20T14:03:29.000Z</time>
      </trkpt>
      <trkpt lat="42.50786" lon="2.39575">
        <ele>1474</ele>
        <time>2018-04-20T14:03:34.000Z</time>
      </trkpt>
      <trkpt lat="42.50776" lon="2.39573">
        <ele>1475</ele>
        <time>2018-04-20T14:03:40.000Z</time>
      </trkpt>
      <trkpt lat="42.50767" lon="2.39572">
        <ele>1474</ele>
        <time>2018-04-20T14:03:45.000Z</time>
      </trkpt>
      <trkpt lat="42.50758" lon="2.39578">
        <ele>1472</ele>
        <time>2018-04-20T14:03:50.000Z</time>
      </trkpt>
      <trkpt lat="42.5075" lon="2.39585">
        <ele>1468</ele>
        <time>2018-04-20T14:03:53.000Z</time>
      </trkpt>
      <trkpt lat="42.5074" lon="2.39588">
        <ele>1466</ele>
        <time>2018-04-20T14:03:57.000Z</time>
      </trkpt>
      <trkpt lat="42.50729" lon="2.39596">
        <ele>1464</ele>
        <time>2018-04-20T14:04:02.000Z</time>
      </trkpt>
      <trkpt lat="42.50718" lon="2.39598">
        <ele>1464</ele>
        <time>2018-04-20T14:04:08.000Z</time>
      </trkpt>
      <trkpt lat="42.50709" lon="2.39597">
        <ele>1465</ele>
        <time>2018-04-20T14:04:15.000Z</time>
      </trkpt>
      <trkpt lat="42.50699" lon="2.39598">
        <ele>1466</ele>
        <time>2018-04-20T14:04:24.000Z</time>
      </trkpt>
      <trkpt lat="42.50689" lon="2.39596">
        <ele>1468</ele>
        <time>2018-04-20T14:04:31.000Z</time>
      </trkpt>
      <trkpt lat="42.50681" lon="2.39591">
        <ele>1471</ele>
        <time>2018-04-20T14:04:39.000Z</time>
      </trkpt>
      <trkpt lat="42.50672" lon="2.39587">
        <ele>1476</ele>
        <time>2018-04-20T14:04:55.000Z</time>
      </trkpt>
      <trkpt lat="42.50664" lon="2.39581">
        <ele>1483</ele>
        <time>2018-04-20T14:05:06.000Z</time>
      </trkpt>
      <trkpt lat="42.50654" lon="2.39579">
        <ele>1487</ele>
        <time>2018-04-20T14:05:14.000Z</time>
      </trkpt>
      <trkpt lat="42.50645" lon="2.39577">
        <ele>1490</ele>
        <time>2018-04-20T14:07:00.000Z</time>
      </trkpt>
      <trkpt lat="42.50653" lon="2.39585">
        <ele>1481</ele>
        <time>2018-04-20T14:10:37.000Z</time>
      </trkpt>
      <trkpt lat="42.50654" lon="2.39597">
        <ele>1480</ele>
        <time>2018-04-20T14:11:38.000Z</time>
      </trkpt>
      <trkpt lat="42.50659" lon="2.39607">
        <ele>1479</ele>
        <time>2018-04-20T14:11:42.000Z</time>
      </trkpt>
      <trkpt lat="42.50666" lon="2.39616">
        <ele>1478</ele>
        <time>2018-04-20T14:11:53.000Z</time>
      </trkpt>
      <trkpt lat="42.50676" lon="2.39619">
        <ele>1465</ele>
        <time>2018-04-20T14:11:56.000Z</time>
      </trkpt>
      <trkpt lat="42.50685" lon="2.39628">
        <ele>1462</ele>
        <time>2018-04-20T14:11:59.000Z</time>
      </trkpt>
      <trkpt lat="42.50695" lon="2.39631">
        <ele>1461</ele>
        <time>2018-04-20T14:12:04.000Z</time>
      </trkpt>
      <trkpt lat="42.50705" lon="2.39623">
        <ele>1461</ele>
        <time>2018-04-20T14:12:07.000Z</time>
      </trkpt>
      <trkpt lat="42.50715" lon="2.39615">
        <ele>1462</ele>
        <time>2018-04-20T14:12:10.000Z</time>
      </trkpt>
      <trkpt lat="42.50722" lon="2.39608">
        <ele>1463</ele>
        <time>2018-04-20T14:12:15.000Z</time>
      </trkpt>
      <trkpt lat="42.5073" lon="2.396">
        <ele>1464</ele>
        <time>2018-04-20T14:12:20.000Z</time>
      </trkpt>
      <trkpt lat="42.50739" lon="2.39594">
        <ele>1465</ele>
        <time>2018-04-20T14:12:26.000Z</time>
      </trkpt>
      <trkpt lat="42.5075" lon="2.39594">
        <ele>1461</ele>
        <time>2018-04-20T14:12:39.000Z</time>
      </trkpt>
      <trkpt lat="42.5076" lon="2.39596">
        <ele>1458</ele>
        <time>2018-04-20T14:12:41.000Z</time>
      </trkpt>
      <trkpt lat="42.50771" lon="2.39599">
        <ele>1454</ele>
        <time>2018-04-20T14:12:45.000Z</time>
      </trkpt>
      <trkpt lat="42.50783" lon="2.39594">
        <ele>1452</ele>
        <time>2018-04-20T14:12:47.000Z</time>
      </trkpt>
      <trkpt lat="42.50793" lon="2.39593">
        <ele>1451</ele>
        <time>2018-04-20T14:12:52.000Z</time>
      </trkpt>
      <trkpt lat="42.50803" lon="2.39591">
        <ele>1450</ele>
        <time>2018-04-20T14:12:57.000Z</time>
      </trkpt>
      <trkpt lat="42.50814" lon="2.39589">
        <ele>1451</ele>
        <time>2018-04-20T14:13:05.000Z</time>
      </trkpt>
      <trkpt lat="42.50822" lon="2.39583">
        <ele>1464</ele>
        <time>2018-04-20T14:13:08.000Z</time>
      </trkpt>
      <trkpt lat="42.50833" lon="2.39581">
        <ele>1457</ele>
        <time>2018-04-20T14:13:11.000Z</time>
      </trkpt>
      <trkpt lat="42.50842" lon="2.39579">
        <ele>1457</ele>
        <time>2018-04-20T14:13:22.000Z</time>
      </trkpt>
      <trkpt lat="42.5085" lon="2.39572">
        <ele>1459</ele>
        <time>2018-04-20T14:14:01.000Z</time>
      </trkpt>
      <trkpt lat="42.50856" lon="2.3958">
        <ele>1458</ele>
        <time>2018-04-20T14:14:09.000Z</time>
      </trkpt>
      <trkpt lat="42.50864" lon="2.39569">
        <ele>1458</ele>
        <time>2018-04-20T14:14:21.000Z</time>
      </trkpt>
      <trkpt lat="42.50873" lon="2.39573">
        <ele>1457</ele>
        <time>2018-04-20T14:14:28.000Z</time>
      </trkpt>
      <trkpt lat="42.50878" lon="2.39584">
        <ele>1437</ele>
        <time>2018-04-20T14:14:42.000Z</time>
      </trkpt>
      <trkpt lat="42.50877" lon="2.39598">
        <ele>1436</ele>
        <time>2018-04-20T14:14:48.000Z</time>
      </trkpt>
      <trkpt lat="42.50871" lon="2.39608">
        <ele>1435</ele>
        <time>2018-04-20T14:14:53.000Z</time>
      </trkpt>
      <trkpt lat="42.50884" lon="2.39603">
        <ele>1435</ele>
        <time>2018-04-20T14:14:56.000Z</time>
      </trkpt>
      <trkpt lat="42.50892" lon="2.39592">
        <ele>1436</ele>
        <time>2018-04-20T14:14:58.000Z</time>
      </trkpt>
      <trkpt lat="42.50897" lon="2.3958">
        <ele>1451</ele>
        <time>2018-04-20T14:15:17.000Z</time>
      </trkpt>
      <trkpt lat="42.50901" lon="2.39568">
        <ele>1452</ele>
        <time>2018-04-20T14:15:24.000Z</time>
      </trkpt>
      <trkpt lat="42.50908" lon="2.39554">
        <ele>1455</ele>
        <time>2018-04-20T14:15:30.000Z</time>
      </trkpt>
      <trkpt lat="42.50913" lon="2.39543">
        <ele>1456</ele>
        <time>2018-04-20T14:15:34.000Z</time>
      </trkpt>
      <trkpt lat="42.50916" lon="2.39529">
        <ele>1458</ele>
        <time>2018-04-20T14:16:07.000Z</time>
      </trkpt>
      <trkpt lat="42.50925" lon="2.39528">
        <ele>1439</ele>
        <time>2018-04-20T14:16:21.000Z</time>
      </trkpt>
      <trkpt lat="42.50932" lon="2.39516">
        <ele>1441</ele>
        <time>2018-04-20T14:16:36.000Z</time>
      </trkpt>
      <trkpt lat="42.50932" lon="2.39504">
        <ele>1444</ele>
        <time>2018-04-20T14:16:42.000Z</time>
      </trkpt>
      <trkpt lat="42.50934" lon="2.3949">
        <ele>1453</ele>
        <time>2018-04-20T14:16:50.000Z</time>
      </trkpt>
      <trkpt lat="42.50942" lon="2.39478">
        <ele>1452</ele>
        <time>2018-04-20T14:16:56.000Z</time>
      </trkpt>
      <trkpt lat="42.50947" lon="2.39467">
        <ele>1452</ele>
        <time>2018-04-20T14:17:05.000Z</time>
      </trkpt>
      <trkpt lat="42.50951" lon="2.39456">
        <ele>1453</ele>
        <time>2018-04-20T14:17:16.000Z</time>
      </trkpt>
      <trkpt lat="42.50951" lon="2.39443">
        <ele>1455</ele>
        <time>2018-04-20T14:17:34.000Z</time>
      </trkpt>
      <trkpt lat="42.50956" lon="2.39431">
        <ele>1455</ele>
        <time>2018-04-20T14:18:01.000Z</time>
      </trkpt>
      <trkpt lat="42.50964" lon="2.39426">
        <ele>1454</ele>
        <time>2018-04-20T14:18:06.000Z</time>
      </trkpt>
      <trkpt lat="42.50971" lon="2.39415">
        <ele>1461</ele>
        <time>2018-04-20T14:18:17.000Z</time>
      </trkpt>
      <trkpt lat="42.50979" lon="2.39406">
        <ele>1459</ele>
        <time>2018-04-20T14:18:26.000Z</time>
      </trkpt>
      <trkpt lat="42.50982" lon="2.39393">
        <ele>1459</ele>
        <time>2018-04-20T14:18:33.000Z</time>
      </trkpt>
      <trkpt lat="42.5099" lon="2.39385">
        <ele>1459</ele>
        <time>2018-04-20T14:18:48.000Z</time>
      </trkpt>
      <trkpt lat="42.50996" lon="2.39375">
        <ele>1458</ele>
        <time>2018-04-20T14:18:57.000Z</time>
      </trkpt>
      <trkpt lat="42.51006" lon="2.39375">
        <ele>1441</ele>
        <time>2018-04-20T14:19:13.000Z</time>
      </trkpt>
      <trkpt lat="42.51015" lon="2.39376">
        <ele>1441</ele>
        <time>2018-04-20T14:19:24.000Z</time>
      </trkpt>
      <trkpt lat="42.51024" lon="2.39372">
        <ele>1440</ele>
        <time>2018-04-20T14:19:30.000Z</time>
      </trkpt>
      <trkpt lat="42.51034" lon="2.3937">
        <ele>1439</ele>
        <time>2018-04-20T14:19:39.000Z</time>
      </trkpt>
      <trkpt lat="42.51042" lon="2.39364">
        <ele>1438</ele>
        <time>2018-04-20T14:19:57.000Z</time>
      </trkpt>
      <trkpt lat="42.51051" lon="2.39364">
        <ele>1437</ele>
        <time>2018-04-20T14:20:05.000Z</time>
      </trkpt>
      <trkpt lat="42.51061" lon="2.39366">
        <ele>1436</ele>
        <time>2018-04-20T14:20:27.000Z</time>
      </trkpt>
      <trkpt lat="42.51069" lon="2.39361">
        <ele>1436</ele>
        <time>2018-04-20T14:20:37.000Z</time>
      </trkpt>
      <trkpt lat="42.51075" lon="2.39351">
        <ele>1435</ele>
        <time>2018-04-20T14:20:53.000Z</time>
      </trkpt>
      <trkpt lat="42.51083" lon="2.39355">
        <ele>1425</ele>
        <time>2018-04-20T14:21:14.000Z</time>
      </trkpt>
      <trkpt lat="42.51093" lon="2.39355">
        <ele>1424</ele>
        <time>2018-04-20T14:22:01.000Z</time>
      </trkpt>
      <trkpt lat="42.51102" lon="2.39349">
        <ele>1424</ele>
        <time>2018-04-20T14:22:10.000Z</time>
      </trkpt>
      <trkpt lat="42.51104" lon="2.39336">
        <ele>1425</ele>
        <time>2018-04-20T14:22:28.000Z</time>
      </trkpt>
      <trkpt lat="42.51096" lon="2.3933">
        <ele>1423</ele>
        <time>2018-04-20T14:22:38.000Z</time>
      </trkpt>
      <trkpt lat="42.51091" lon="2.39319">
        <ele>1421</ele>
        <time>2018-04-20T14:22:49.000Z</time>
      </trkpt>
      <trkpt lat="42.51101" lon="2.39319">
        <ele>1418</ele>
        <time>2018-04-20T14:23:15.000Z</time>
      </trkpt>
      <trkpt lat="42.5111" lon="2.39322">
        <ele>1416</ele>
        <time>2018-04-20T14:23:23.000Z</time>
      </trkpt>
      <trkpt lat="42.51119" lon="2.39319">
        <ele>1414</ele>
        <time>2018-04-20T14:23:34.000Z</time>
      </trkpt>
      <trkpt lat="42.5113" lon="2.3932">
        <ele>1413</ele>
        <time>2018-04-20T14:23:50.000Z</time>
      </trkpt>
      <trkpt lat="42.51137" lon="2.39328">
        <ele>1413</ele>
        <time>2018-04-20T14:24:00.000Z</time>
      </trkpt>
      <trkpt lat="42.51146" lon="2.39331">
        <ele>1413</ele>
        <time>2018-04-20T14:24:06.000Z</time>
      </trkpt>
      <trkpt lat="42.51155" lon="2.39337">
        <ele>1416</ele>
        <time>2018-04-20T14:24:10.000Z</time>
      </trkpt>
      <trkpt lat="42.51164" lon="2.39336">
        <ele>1415</ele>
        <time>2018-04-20T14:24:25.000Z</time>
      </trkpt>
      <trkpt lat="42.51165" lon="2.39322">
        <ele>1412</ele>
        <time>2018-04-20T14:24:34.000Z</time>
      </trkpt>
      <trkpt lat="42.51171" lon="2.39311">
        <ele>1409</ele>
        <time>2018-04-20T14:24:55.000Z</time>
      </trkpt>
      <trkpt lat="42.51162" lon="2.39304">
        <ele>1409</ele>
        <time>2018-04-20T14:25:01.000Z</time>
      </trkpt>
      <trkpt lat="42.51154" lon="2.39295">
        <ele>1408</ele>
        <time>2018-04-20T14:25:05.000Z</time>
      </trkpt>
      <trkpt lat="42.51146" lon="2.39284">
        <ele>1406</ele>
        <time>2018-04-20T14:25:11.000Z</time>
      </trkpt>
      <trkpt lat="42.51138" lon="2.39277">
        <ele>1406</ele>
        <time>2018-04-20T14:25:18.000Z</time>
      </trkpt>
      <trkpt lat="42.51131" lon="2.3927">
        <ele>1405</ele>
        <time>2018-04-20T14:25:26.000Z</time>
      </trkpt>
      <trkpt lat="42.51123" lon="2.39262">
        <ele>1405</ele>
        <time>2018-04-20T14:25:34.000Z</time>
      </trkpt>
      <trkpt lat="42.51116" lon="2.39252">
        <ele>1405</ele>
        <time>2018-04-20T14:25:47.000Z</time>
      </trkpt>
      <trkpt lat="42.51126" lon="2.39253">
        <ele>1404</ele>
        <time>2018-04-20T14:26:11.000Z</time>
      </trkpt>
      <trkpt lat="42.51135" lon="2.39248">
        <ele>1382</ele>
        <time>2018-04-20T14:26:16.000Z</time>
      </trkpt>
      <trkpt lat="42.51138" lon="2.39237">
        <ele>1381</ele>
        <time>2018-04-20T14:26:51.000Z</time>
      </trkpt>
      <trkpt lat="42.51146" lon="2.3923">
        <ele>1380</ele>
        <time>2018-04-20T14:27:13.000Z</time>
      </trkpt>
      <trkpt lat="42.51151" lon="2.39219">
        <ele>1377</ele>
        <time>2018-04-20T14:27:54.000Z</time>
      </trkpt>
      <trkpt lat="42.51148" lon="2.39208">
        <ele>1373</ele>
        <time>2018-04-20T14:28:01.000Z</time>
      </trkpt>
      <trkpt lat="42.5114" lon="2.392">
        <ele>1371</ele>
        <time>2018-04-20T14:28:16.000Z</time>
      </trkpt>
      <trkpt lat="42.51131" lon="2.39196">
        <ele>1371</ele>
        <time>2018-04-20T14:28:26.000Z</time>
      </trkpt>
      <trkpt lat="42.51125" lon="2.39188">
        <ele>1370</ele>
        <time>2018-04-20T14:28:41.000Z</time>
      </trkpt>
      <trkpt lat="42.51115" lon="2.39184">
        <ele>1370</ele>
        <time>2018-04-20T14:29:10.000Z</time>
      </trkpt>
      <trkpt lat="42.51109" lon="2.39172">
        <ele>1368</ele>
        <time>2018-04-20T14:29:22.000Z</time>
      </trkpt>
      <trkpt lat="42.5111" lon="2.39159">
        <ele>1348</ele>
        <time>2018-04-20T14:29:28.000Z</time>
      </trkpt>
      <trkpt lat="42.511" lon="2.39161">
        <ele>1351</ele>
        <time>2018-04-20T14:29:40.000Z</time>
      </trkpt>
      <trkpt lat="42.51091" lon="2.39163">
        <ele>1355</ele>
        <time>2018-04-20T14:29:52.000Z</time>
      </trkpt>
      <trkpt lat="42.51083" lon="2.39155">
        <ele>1354</ele>
        <time>2018-04-20T14:30:02.000Z</time>
      </trkpt>
      <trkpt lat="42.51076" lon="2.39164">
        <ele>1364</ele>
        <time>2018-04-20T14:30:13.000Z</time>
      </trkpt>
      <trkpt lat="42.51079" lon="2.39152">
        <ele>1366</ele>
        <time>2018-04-20T14:30:39.000Z</time>
      </trkpt>
      <trkpt lat="42.51088" lon="2.39152">
        <ele>1352</ele>
        <time>2018-04-20T14:31:03.000Z</time>
      </trkpt>
      <trkpt lat="42.51093" lon="2.39143">
        <ele>1348</ele>
        <time>2018-04-20T14:31:20.000Z</time>
      </trkpt>
      <trkpt lat="42.51093" lon="2.39129">
        <ele>1345</ele>
        <time>2018-04-20T14:31:35.000Z</time>
      </trkpt>
      <trkpt lat="42.51086" lon="2.39121">
        <ele>1344</ele>
        <time>2018-04-20T14:31:42.000Z</time>
      </trkpt>
      <trkpt lat="42.51095" lon="2.39118">
        <ele>1343</ele>
        <time>2018-04-20T14:32:47.000Z</time>
      </trkpt>
      <trkpt lat="42.51104" lon="2.39117">
        <ele>1342</ele>
        <time>2018-04-20T14:33:07.000Z</time>
      </trkpt>
      <trkpt lat="42.51113" lon="2.39122">
        <ele>1342</ele>
        <time>2018-04-20T14:33:17.000Z</time>
      </trkpt>
      <trkpt lat="42.51122" lon="2.39119">
        <ele>1340</ele>
        <time>2018-04-20T14:33:28.000Z</time>
      </trkpt>
      <trkpt lat="42.51125" lon="2.39105">
        <ele>1337</ele>
        <time>2018-04-20T14:33:36.000Z</time>
      </trkpt>
      <trkpt lat="42.51134" lon="2.39104">
        <ele>1335</ele>
        <time>2018-04-20T14:33:59.000Z</time>
      </trkpt>
      <trkpt lat="42.51144" lon="2.39098">
        <ele>1331</ele>
        <time>2018-04-20T14:34:21.000Z</time>
      </trkpt>
      <trkpt lat="42.51153" lon="2.39096">
        <ele>1326</ele>
        <time>2018-04-20T14:34:28.000Z</time>
      </trkpt>
      <trkpt lat="42.51162" lon="2.39092">
        <ele>1320</ele>
        <time>2018-04-20T14:34:35.000Z</time>
      </trkpt>
      <trkpt lat="42.51173" lon="2.39086">
        <ele>1314</ele>
        <time>2018-04-20T14:34:48.000Z</time>
      </trkpt>
      <trkpt lat="42.51173" lon="2.39072">
        <ele>1304</ele>
        <time>2018-04-20T14:35:01.000Z</time>
      </trkpt>
      <trkpt lat="42.51165" lon="2.39067">
        <ele>1317</ele>
        <time>2018-04-20T14:35:17.000Z</time>
      </trkpt>
      <trkpt lat="42.51156" lon="2.39064">
        <ele>1320</ele>
        <time>2018-04-20T14:35:27.000Z</time>
      </trkpt>
      <trkpt lat="42.51147" lon="2.39059">
        <ele>1322</ele>
        <time>2018-04-20T14:35:44.000Z</time>
      </trkpt>
      <trkpt lat="42.51151" lon="2.39073">
        <ele>1319</ele>
        <time>2018-04-20T14:36:24.000Z</time>
      </trkpt>
      <trkpt lat="42.5116" lon="2.39076">
        <ele>1315</ele>
        <time>2018-04-20T14:36:31.000Z</time>
      </trkpt>
      <trkpt lat="42.51171" lon="2.39075">
        <ele>1305</ele>
        <time>2018-04-20T14:36:42.000Z</time>
      </trkpt>
      <trkpt lat="42.5118" lon="2.3907">
        <ele>1302</ele>
        <time>2018-04-20T14:36:51.000Z</time>
      </trkpt>
      <trkpt lat="42.5118" lon="2.39055">
        <ele>1299</ele>
        <time>2018-04-20T14:36:57.000Z</time>
      </trkpt>
      <trkpt lat="42.51188" lon="2.39047">
        <ele>1297</ele>
        <time>2018-04-20T14:37:03.000Z</time>
      </trkpt>
      <trkpt lat="42.51194" lon="2.39036">
        <ele>1295</ele>
        <time>2018-04-20T14:37:07.000Z</time>
      </trkpt>
      <trkpt lat="42.51202" lon="2.39042">
        <ele>1295</ele>
        <time>2018-04-20T14:37:30.000Z</time>
      </trkpt>
      <trkpt lat="42.51209" lon="2.3903">
        <ele>1292</ele>
        <time>2018-04-20T14:37:37.000Z</time>
      </trkpt>
      <trkpt lat="42.5121" lon="2.39018">
        <ele>1291</ele>
        <time>2018-04-20T14:37:51.000Z</time>
      </trkpt>
      <trkpt lat="42.51204" lon="2.39008">
        <ele>1291</ele>
        <time>2018-04-20T14:37:56.000Z</time>
      </trkpt>
      <trkpt lat="42.51204" lon="2.38996">
        <ele>1288</ele>
        <time>2018-04-20T14:37:59.000Z</time>
      </trkpt>
      <trkpt lat="42.51215" lon="2.38989">
        <ele>1285</ele>
        <time>2018-04-20T14:38:20.000Z</time>
      </trkpt>
      <trkpt lat="42.5122" lon="2.38977">
        <ele>1284</ele>
        <time>2018-04-20T14:38:34.000Z</time>
      </trkpt>
      <trkpt lat="42.51228" lon="2.38969">
        <ele>1283</ele>
        <time>2018-04-20T14:38:44.000Z</time>
      </trkpt>
      <trkpt lat="42.51235" lon="2.38962">
        <ele>1282</ele>
        <time>2018-04-20T14:38:54.000Z</time>
      </trkpt>
      <trkpt lat="42.51241" lon="2.3895">
        <ele>1281</ele>
        <time>2018-04-20T14:39:02.000Z</time>
      </trkpt>
      <trkpt lat="42.51248" lon="2.38942">
        <ele>1279</ele>
        <time>2018-04-20T14:39:08.000Z</time>
      </trkpt>
      <trkpt lat="42.51256" lon="2.38936">
        <ele>1258</ele>
        <time>2018-04-20T14:39:21.000Z</time>
      </trkpt>
      <trkpt lat="42.51262" lon="2.38926">
        <ele>1259</ele>
        <time>2018-04-20T14:39:35.000Z</time>
      </trkpt>
      <trkpt lat="42.5127" lon="2.38915">
        <ele>1258</ele>
        <time>2018-04-20T14:39:39.000Z</time>
      </trkpt>
      <trkpt lat="42.5128" lon="2.38907">
        <ele>1254</ele>
        <time>2018-04-20T14:39:41.000Z</time>
      </trkpt>
      <trkpt lat="42.5129" lon="2.38902">
        <ele>1251</ele>
        <time>2018-04-20T14:39:53.000Z</time>
      </trkpt>
      <trkpt lat="42.51295" lon="2.38888">
        <ele>1251</ele>
        <time>2018-04-20T14:40:07.000Z</time>
      </trkpt>
      <trkpt lat="42.51296" lon="2.38874">
        <ele>1252</ele>
        <time>2018-04-20T14:40:15.000Z</time>
      </trkpt>
      <trkpt lat="42.51299" lon="2.38861">
        <ele>1252</ele>
        <time>2018-04-20T14:40:21.000Z</time>
      </trkpt>
      <trkpt lat="42.51308" lon="2.38857">
        <ele>1250</ele>
        <time>2018-04-20T14:40:31.000Z</time>
      </trkpt>
      <trkpt lat="42.51315" lon="2.38848">
        <ele>1248</ele>
        <time>2018-04-20T14:40:43.000Z</time>
      </trkpt>
      <trkpt lat="42.51324" lon="2.38844">
        <ele>1245</ele>
        <time>2018-04-20T14:40:51.000Z</time>
      </trkpt>
      <trkpt lat="42.51324" lon="2.38829">
        <ele>1251</ele>
        <time>2018-04-20T14:40:57.000Z</time>
      </trkpt>
      <trkpt lat="42.51331" lon="2.38838">
        <ele>1241</ele>
        <time>2018-04-20T14:41:03.000Z</time>
      </trkpt>
      <trkpt lat="42.51321" lon="2.38834">
        <ele>1245</ele>
        <time>2018-04-20T14:41:16.000Z</time>
      </trkpt>
      <trkpt lat="42.51333" lon="2.38835">
        <ele>1240</ele>
        <time>2018-04-20T14:41:19.000Z</time>
      </trkpt>
      <trkpt lat="42.51344" lon="2.3884">
        <ele>1227</ele>
        <time>2018-04-20T14:41:22.000Z</time>
      </trkpt>
      <trkpt lat="42.51352" lon="2.38839">
        <ele>1222</ele>
        <time>2018-04-20T14:41:27.000Z</time>
      </trkpt>
      <trkpt lat="42.51361" lon="2.38831">
        <ele>1229</ele>
        <time>2018-04-20T14:41:32.000Z</time>
      </trkpt>
      <trkpt lat="42.51364" lon="2.38818">
        <ele>1229</ele>
        <time>2018-04-20T14:41:42.000Z</time>
      </trkpt>
      <trkpt lat="42.51376" lon="2.38814">
        <ele>1225</ele>
        <time>2018-04-20T14:41:55.000Z</time>
      </trkpt>
      <trkpt lat="42.51383" lon="2.388">
        <ele>1226</ele>
        <time>2018-04-20T14:42:07.000Z</time>
      </trkpt>
      <trkpt lat="42.51379" lon="2.38788">
        <ele>1229</ele>
        <time>2018-04-20T14:42:26.000Z</time>
      </trkpt>
      <trkpt lat="42.51388" lon="2.38781">
        <ele>1228</ele>
        <time>2018-04-20T14:42:34.000Z</time>
      </trkpt>
      <trkpt lat="42.51392" lon="2.38769">
        <ele>1229</ele>
        <time>2018-04-20T14:42:40.000Z</time>
      </trkpt>
      <trkpt lat="42.51395" lon="2.38756">
        <ele>1229</ele>
        <time>2018-04-20T14:42:45.000Z</time>
      </trkpt>
      <trkpt lat="42.51403" lon="2.38751">
        <ele>1227</ele>
        <time>2018-04-20T14:42:55.000Z</time>
      </trkpt>
      <trkpt lat="42.51413" lon="2.38747">
        <ele>1231</ele>
        <time>2018-04-20T14:43:05.000Z</time>
      </trkpt>
      <trkpt lat="42.51423" lon="2.38742">
        <ele>1225</ele>
        <time>2018-04-20T14:43:12.000Z</time>
      </trkpt>
      <trkpt lat="42.51431" lon="2.38737">
        <ele>1225</ele>
        <time>2018-04-20T14:43:25.000Z</time>
      </trkpt>
      <trkpt lat="42.51439" lon="2.3873">
        <ele>1225</ele>
        <time>2018-04-20T14:43:31.000Z</time>
      </trkpt>
      <trkpt lat="42.51448" lon="2.38732">
        <ele>1224</ele>
        <time>2018-04-20T14:43:51.000Z</time>
      </trkpt>
      <trkpt lat="42.51456" lon="2.38725">
        <ele>1223</ele>
        <time>2018-04-20T14:44:00.000Z</time>
      </trkpt>
      <trkpt lat="42.51465" lon="2.38718">
        <ele>1222</ele>
        <time>2018-04-20T14:44:05.000Z</time>
      </trkpt>
      <trkpt lat="42.51475" lon="2.38713">
        <ele>1221</ele>
        <time>2018-04-20T14:44:12.000Z</time>
      </trkpt>
      <trkpt lat="42.51481" lon="2.38703">
        <ele>1222</ele>
        <time>2018-04-20T14:44:23.000Z</time>
      </trkpt>
      <trkpt lat="42.5149" lon="2.38707">
        <ele>1220</ele>
        <time>2018-04-20T14:44:46.000Z</time>
      </trkpt>
      <trkpt lat="42.51498" lon="2.38709">
        <ele>1219</ele>
        <time>2018-04-20T14:44:57.000Z</time>
      </trkpt>
      <trkpt lat="42.51507" lon="2.38701">
        <ele>1202</ele>
        <time>2018-04-20T14:45:00.000Z</time>
      </trkpt>
      <trkpt lat="42.51514" lon="2.38693">
        <ele>1203</ele>
        <time>2018-04-20T14:45:05.000Z</time>
      </trkpt>
      <trkpt lat="42.51522" lon="2.38684">
        <ele>1204</ele>
        <time>2018-04-20T14:45:10.000Z</time>
      </trkpt>
      <trkpt lat="42.51528" lon="2.38675">
        <ele>1203</ele>
        <time>2018-04-20T14:45:23.000Z</time>
      </trkpt>
      <trkpt lat="42.51531" lon="2.38663">
        <ele>1207</ele>
        <time>2018-04-20T14:45:27.000Z</time>
      </trkpt>
      <trkpt lat="42.51533" lon="2.38649">
        <ele>1206</ele>
        <time>2018-04-20T14:45:34.000Z</time>
      </trkpt>
      <trkpt lat="42.51531" lon="2.38637">
        <ele>1205</ele>
        <time>2018-04-20T14:45:43.000Z</time>
      </trkpt>
      <trkpt lat="42.51529" lon="2.38625">
        <ele>1205</ele>
        <time>2018-04-20T14:45:56.000Z</time>
      </trkpt>
      <trkpt lat="42.51525" lon="2.38614">
        <ele>1205</ele>
        <time>2018-04-20T14:46:07.000Z</time>
      </trkpt>
      <trkpt lat="42.51521" lon="2.386">
        <ele>1207</ele>
        <time>2018-04-20T14:46:16.000Z</time>
      </trkpt>
      <trkpt lat="42.51524" lon="2.38587">
        <ele>1206</ele>
        <time>2018-04-20T14:46:31.000Z</time>
      </trkpt>
      <trkpt lat="42.51522" lon="2.38574">
        <ele>1199</ele>
        <time>2018-04-20T14:46:38.000Z</time>
      </trkpt>
      <trkpt lat="42.51519" lon="2.38561">
        <ele>1197</ele>
        <time>2018-04-20T14:46:48.000Z</time>
      </trkpt>
      <trkpt lat="42.5152" lon="2.38548">
        <ele>1194</ele>
        <time>2018-04-20T14:46:56.000Z</time>
      </trkpt>
      <trkpt lat="42.51525" lon="2.38536">
        <ele>1191</ele>
        <time>2018-04-20T14:47:06.000Z</time>
      </trkpt>
      <trkpt lat="42.51525" lon="2.38521">
        <ele>1190</ele>
        <time>2018-04-20T14:47:16.000Z</time>
      </trkpt>
      <trkpt lat="42.51522" lon="2.38509">
        <ele>1190</ele>
        <time>2018-04-20T14:47:24.000Z</time>
      </trkpt>
      <trkpt lat="42.51517" lon="2.38498">
        <ele>1182</ele>
        <time>2018-04-20T14:47:29.000Z</time>
      </trkpt>
      <trkpt lat="42.51514" lon="2.38485">
        <ele>1180</ele>
        <time>2018-04-20T14:47:38.000Z</time>
      </trkpt>
      <trkpt lat="42.51509" lon="2.38474">
        <ele>1177</ele>
        <time>2018-04-20T14:47:47.000Z</time>
      </trkpt>
      <trkpt lat="42.51505" lon="2.38462">
        <ele>1174</ele>
        <time>2018-04-20T14:47:56.000Z</time>
      </trkpt>
      <trkpt lat="42.51505" lon="2.3845">
        <ele>1172</ele>
        <time>2018-04-20T14:48:05.000Z</time>
      </trkpt>
      <trkpt lat="42.51505" lon="2.38437">
        <ele>1170</ele>
        <time>2018-04-20T14:48:11.000Z</time>
      </trkpt>
      <trkpt lat="42.51501" lon="2.38425">
        <ele>1170</ele>
        <time>2018-04-20T14:48:25.000Z</time>
      </trkpt>
      <trkpt lat="42.51497" lon="2.38412">
        <ele>1173</ele>
        <time>2018-04-20T14:48:36.000Z</time>
      </trkpt>
      <trkpt lat="42.51491" lon="2.38401">
        <ele>1177</ele>
        <time>2018-04-20T14:48:43.000Z</time>
      </trkpt>
      <trkpt lat="42.51491" lon="2.38388">
        <ele>1177</ele>
        <time>2018-04-20T14:48:52.000Z</time>
      </trkpt>
      <trkpt lat="42.51487" lon="2.38375">
        <ele>1177</ele>
        <time>2018-04-20T14:49:00.000Z</time>
      </trkpt>
      <trkpt lat="42.51482" lon="2.38362">
        <ele>1175</ele>
        <time>2018-04-20T14:49:12.000Z</time>
      </trkpt>
      <trkpt lat="42.51477" lon="2.3835">
        <ele>1173</ele>
        <time>2018-04-20T14:49:19.000Z</time>
      </trkpt>
      <trkpt lat="42.51476" lon="2.38337">
        <ele>1172</ele>
        <time>2018-04-20T14:49:33.000Z</time>
      </trkpt>
      <trkpt lat="42.51476" lon="2.38324">
        <ele>1164</ele>
        <time>2018-04-20T14:49:45.000Z</time>
      </trkpt>
      <trkpt lat="42.51481" lon="2.38311">
        <ele>1163</ele>
        <time>2018-04-20T14:49:56.000Z</time>
      </trkpt>
      <trkpt lat="42.51484" lon="2.38299">
        <ele>1163</ele>
        <time>2018-04-20T14:50:02.000Z</time>
      </trkpt>
      <trkpt lat="42.5148" lon="2.38288">
        <ele>1163</ele>
        <time>2018-04-20T14:50:10.000Z</time>
      </trkpt>
      <trkpt lat="42.51481" lon="2.38276">
        <ele>1161</ele>
        <time>2018-04-20T14:50:21.000Z</time>
      </trkpt>
      <trkpt lat="42.51477" lon="2.38262">
        <ele>1160</ele>
        <time>2018-04-20T14:50:31.000Z</time>
      </trkpt>
      <trkpt lat="42.51484" lon="2.38252">
        <ele>1154</ele>
        <time>2018-04-20T14:50:36.000Z</time>
      </trkpt>
      <trkpt lat="42.51485" lon="2.38239">
        <ele>1149</ele>
        <time>2018-04-20T14:50:45.000Z</time>
      </trkpt>
      <trkpt lat="42.51487" lon="2.38225">
        <ele>1151</ele>
        <time>2018-04-20T14:50:51.000Z</time>
      </trkpt>
      <trkpt lat="42.51491" lon="2.38213">
        <ele>1150</ele>
        <time>2018-04-20T14:50:58.000Z</time>
      </trkpt>
      <trkpt lat="42.51492" lon="2.38199">
        <ele>1148</ele>
        <time>2018-04-20T14:51:07.000Z</time>
      </trkpt>
      <trkpt lat="42.51492" lon="2.38186">
        <ele>1144</ele>
        <time>2018-04-20T14:51:15.000Z</time>
      </trkpt>
      <trkpt lat="42.51494" lon="2.38173">
        <ele>1137</ele>
        <time>2018-04-20T14:51:22.000Z</time>
      </trkpt>
      <trkpt lat="42.51491" lon="2.38159">
        <ele>1133</ele>
        <time>2018-04-20T14:51:28.000Z</time>
      </trkpt>
      <trkpt lat="42.51494" lon="2.38147">
        <ele>1135</ele>
        <time>2018-04-20T14:51:35.000Z</time>
      </trkpt>
      <trkpt lat="42.51495" lon="2.38134">
        <ele>1135</ele>
        <time>2018-04-20T14:51:41.000Z</time>
      </trkpt>
      <trkpt lat="42.51502" lon="2.38125">
        <ele>1121</ele>
        <time>2018-04-20T14:51:54.000Z</time>
      </trkpt>
      <trkpt lat="42.51508" lon="2.38115">
        <ele>1120</ele>
        <time>2018-04-20T14:52:00.000Z</time>
      </trkpt>
      <trkpt lat="42.51507" lon="2.38101">
        <ele>1120</ele>
        <time>2018-04-20T14:52:04.000Z</time>
      </trkpt>
      <trkpt lat="42.515" lon="2.38091">
        <ele>1126</ele>
        <time>2018-04-20T14:52:08.000Z</time>
      </trkpt>
      <trkpt lat="42.5149" lon="2.38089">
        <ele>1128</ele>
        <time>2018-04-20T14:52:12.000Z</time>
      </trkpt>
      <trkpt lat="42.5148" lon="2.38091">
        <ele>1132</ele>
        <time>2018-04-20T14:52:16.000Z</time>
      </trkpt>
      <trkpt lat="42.51468" lon="2.38096">
        <ele>1135</ele>
        <time>2018-04-20T14:52:21.000Z</time>
      </trkpt>
      <trkpt lat="42.51459" lon="2.38096">
        <ele>1136</ele>
        <time>2018-04-20T14:52:28.000Z</time>
      </trkpt>
      <trkpt lat="42.5145" lon="2.38098">
        <ele>1138</ele>
        <time>2018-04-20T14:52:58.000Z</time>
      </trkpt>
      <trkpt lat="42.51443" lon="2.3809">
        <ele>1137</ele>
        <time>2018-04-20T14:53:09.000Z</time>
      </trkpt>
      <trkpt lat="42.51465" lon="2.38105">
        <ele>1136</ele>
        <time>2018-04-20T07:53:43.557Z</time>
      </trkpt>
      <trkpt lat="42.5148" lon="2.38108">
        <ele>1134</ele>
        <time>2018-04-20T07:53:44.557Z</time>
      </trkpt>
      <trkpt lat="42.51472" lon="2.381">
        <ele>1134</ele>
        <time>2018-04-20T07:53:50.000Z</time>
      </trkpt>
      <trkpt lat="42.51462" lon="2.38103">
        <ele>1136</ele>
        <time>2018-04-20T07:54:00.000Z</time>
      </trkpt>
      <trkpt lat="42.51449" lon="2.38105">
        <ele>1138</ele>
        <time>2018-04-20T07:54:15.000Z</time>
      </trkpt>
      <trkpt lat="42.5144" lon="2.38098">
        <ele>1138</ele>
        <time>2018-04-20T07:54:29.000Z</time>
      </trkpt>
      <trkpt lat="42.51432" lon="2.3809">
        <ele>1138</ele>
        <time>2018-04-20T07:54:39.000Z</time>
      </trkpt>
      <trkpt lat="42.51422" lon="2.38087">
        <ele>1137</ele>
        <time>2018-04-20T07:54:46.000Z</time>
      </trkpt>
      <trkpt lat="42.51413" lon="2.38083">
        <ele>1136</ele>
        <time>2018-04-20T07:55:06.000Z</time>
      </trkpt>
      <trkpt lat="42.51404" lon="2.38077">
        <ele>1137</ele>
        <time>2018-04-20T07:55:14.000Z</time>
      </trkpt>
      <trkpt lat="42.51396" lon="2.38072">
        <ele>1138</ele>
        <time>2018-04-20T07:55:24.000Z</time>
      </trkpt>
      <trkpt lat="42.51388" lon="2.38066">
        <ele>1139</ele>
        <time>2018-04-20T07:55:31.000Z</time>
      </trkpt>
      <trkpt lat="42.51379" lon="2.3806">
        <ele>1140</ele>
        <time>2018-04-20T07:55:40.000Z</time>
      </trkpt>
      <trkpt lat="42.51371" lon="2.38053">
        <ele>1140</ele>
        <time>2018-04-20T07:55:51.000Z</time>
      </trkpt>
      <trkpt lat="42.51363" lon="2.38045">
        <ele>1140</ele>
        <time>2018-04-20T07:56:03.000Z</time>
      </trkpt>
      <trkpt lat="42.51356" lon="2.38037">
        <ele>1140</ele>
        <time>2018-04-20T07:56:11.000Z</time>
      </trkpt>
      <trkpt lat="42.51348" lon="2.3803">
        <ele>1139</ele>
        <time>2018-04-20T07:56:24.000Z</time>
      </trkpt>
      <trkpt lat="42.51339" lon="2.38026">
        <ele>1139</ele>
        <time>2018-04-20T07:56:31.000Z</time>
      </trkpt>
      <trkpt lat="42.51329" lon="2.38019">
        <ele>1148</ele>
        <time>2018-04-20T07:56:38.000Z</time>
      </trkpt>
      <trkpt lat="42.51321" lon="2.38013">
        <ele>1147</ele>
        <time>2018-04-20T07:56:45.000Z</time>
      </trkpt>
      <trkpt lat="42.51312" lon="2.38008">
        <ele>1148</ele>
        <time>2018-04-20T07:56:57.000Z</time>
      </trkpt>
      <trkpt lat="42.51302" lon="2.38004">
        <ele>1150</ele>
        <time>2018-04-20T07:57:09.000Z</time>
      </trkpt>
      <trkpt lat="42.51293" lon="2.38004">
        <ele>1151</ele>
        <time>2018-04-20T07:57:24.000Z</time>
      </trkpt>
      <trkpt lat="42.51285" lon="2.38011">
        <ele>1152</ele>
        <time>2018-04-20T07:57:33.000Z</time>
      </trkpt>
      <trkpt lat="42.51278" lon="2.38019">
        <ele>1154</ele>
        <time>2018-04-20T07:57:44.000Z</time>
      </trkpt>
      <trkpt lat="42.5127" lon="2.38027">
        <ele>1155</ele>
        <time>2018-04-20T07:57:56.000Z</time>
      </trkpt>
      <trkpt lat="42.51262" lon="2.38034">
        <ele>1157</ele>
        <time>2018-04-20T07:58:08.000Z</time>
      </trkpt>
      <trkpt lat="42.51253" lon="2.38039">
        <ele>1158</ele>
        <time>2018-04-20T07:58:20.000Z</time>
      </trkpt>
      <trkpt lat="42.51245" lon="2.38044">
        <ele>1171</ele>
        <time>2018-04-20T07:58:31.000Z</time>
      </trkpt>
      <trkpt lat="42.51236" lon="2.3805">
        <ele>1173</ele>
        <time>2018-04-20T07:58:46.000Z</time>
      </trkpt>
      <trkpt lat="42.51227" lon="2.38054">
        <ele>1175</ele>
        <time>2018-04-20T07:58:58.000Z</time>
      </trkpt>
      <trkpt lat="42.51221" lon="2.38043">
        <ele>1173</ele>
        <time>2018-04-20T07:59:13.000Z</time>
      </trkpt>
      <trkpt lat="42.51213" lon="2.38035">
        <ele>1172</ele>
        <time>2018-04-20T07:59:23.000Z</time>
      </trkpt>
      <trkpt lat="42.51204" lon="2.38028">
        <ele>1172</ele>
        <time>2018-04-20T07:59:30.000Z</time>
      </trkpt>
      <trkpt lat="42.51197" lon="2.38021">
        <ele>1171</ele>
        <time>2018-04-20T07:59:40.000Z</time>
      </trkpt>
      <trkpt lat="42.51188" lon="2.38015">
        <ele>1170</ele>
        <time>2018-04-20T07:59:49.000Z</time>
      </trkpt>
      <trkpt lat="42.5118" lon="2.38008">
        <ele>1169</ele>
        <time>2018-04-20T07:59:56.000Z</time>
      </trkpt>
      <trkpt lat="42.51171" lon="2.38003">
        <ele>1166</ele>
        <time>2018-04-20T08:00:03.000Z</time>
      </trkpt>
      <trkpt lat="42.51162" lon="2.38001">
        <ele>1168</ele>
        <time>2018-04-20T08:00:09.000Z</time>
      </trkpt>
      <trkpt lat="42.51153" lon="2.37998">
        <ele>1155</ele>
        <time>2018-04-20T08:00:17.000Z</time>
      </trkpt>
      <trkpt lat="42.51144" lon="2.37999">
        <ele>1153</ele>
        <time>2018-04-20T08:00:26.000Z</time>
      </trkpt>
      <trkpt lat="42.51135" lon="2.38">
        <ele>1179</ele>
        <time>2018-04-20T08:00:37.000Z</time>
      </trkpt>
      <trkpt lat="42.51125" lon="2.37999">
        <ele>1151</ele>
        <time>2018-04-20T08:00:46.000Z</time>
      </trkpt>
      <trkpt lat="42.51116" lon="2.37997">
        <ele>1151</ele>
        <time>2018-04-20T08:00:55.000Z</time>
      </trkpt>
      <trkpt lat="42.51106" lon="2.37994">
        <ele>1153</ele>
        <time>2018-04-20T08:01:03.000Z</time>
      </trkpt>
      <trkpt lat="42.51096" lon="2.37996">
        <ele>1157</ele>
        <time>2018-04-20T08:01:13.000Z</time>
      </trkpt>
      <trkpt lat="42.51087" lon="2.38">
        <ele>1170</ele>
        <time>2018-04-20T08:01:23.000Z</time>
      </trkpt>
      <trkpt lat="42.51079" lon="2.38006">
        <ele>1170</ele>
        <time>2018-04-20T08:01:36.000Z</time>
      </trkpt>
      <trkpt lat="42.51072" lon="2.38013">
        <ele>1173</ele>
        <time>2018-04-20T08:01:44.000Z</time>
      </trkpt>
      <trkpt lat="42.51063" lon="2.38018">
        <ele>1175</ele>
        <time>2018-04-20T08:01:58.000Z</time>
      </trkpt>
      <trkpt lat="42.51054" lon="2.38024">
        <ele>1176</ele>
        <time>2018-04-20T08:02:11.000Z</time>
      </trkpt>
      <trkpt lat="42.51048" lon="2.38033">
        <ele>1178</ele>
        <time>2018-04-20T08:02:41.000Z</time>
      </trkpt>
      <trkpt lat="42.51041" lon="2.38042">
        <ele>1179</ele>
        <time>2018-04-20T08:02:55.000Z</time>
      </trkpt>
      <trkpt lat="42.51035" lon="2.38052">
        <ele>1181</ele>
        <time>2018-04-20T08:03:08.000Z</time>
      </trkpt>
      <trkpt lat="42.51032" lon="2.38065">
        <ele>1184</ele>
        <time>2018-04-20T08:03:18.000Z</time>
      </trkpt>
      <trkpt lat="42.51027" lon="2.38076">
        <ele>1186</ele>
        <time>2018-04-20T08:03:29.000Z</time>
      </trkpt>
      <trkpt lat="42.51018" lon="2.38081">
        <ele>1187</ele>
        <time>2018-04-20T08:03:38.000Z</time>
      </trkpt>
      <trkpt lat="42.51009" lon="2.38087">
        <ele>1203</ele>
        <time>2018-04-20T08:03:49.000Z</time>
      </trkpt>
      <trkpt lat="42.51" lon="2.38088">
        <ele>1198</ele>
        <time>2018-04-20T08:03:59.000Z</time>
      </trkpt>
      <trkpt lat="42.5099" lon="2.38087">
        <ele>1198</ele>
        <time>2018-04-20T08:04:06.000Z</time>
      </trkpt>
      <trkpt lat="42.50982" lon="2.38093">
        <ele>1201</ele>
        <time>2018-04-20T08:04:15.000Z</time>
      </trkpt>
      <trkpt lat="42.50975" lon="2.38103">
        <ele>1204</ele>
        <time>2018-04-20T08:04:23.000Z</time>
      </trkpt>
      <trkpt lat="42.50968" lon="2.38112">
        <ele>1207</ele>
        <time>2018-04-20T08:04:35.000Z</time>
      </trkpt>
      <trkpt lat="42.5096" lon="2.38119">
        <ele>1208</ele>
        <time>2018-04-20T08:04:44.000Z</time>
      </trkpt>
      <trkpt lat="42.50955" lon="2.38131">
        <ele>1211</ele>
        <time>2018-04-20T08:04:54.000Z</time>
      </trkpt>
      <trkpt lat="42.50947" lon="2.38137">
        <ele>1212</ele>
        <time>2018-04-20T08:05:02.000Z</time>
      </trkpt>
      <trkpt lat="42.50937" lon="2.38138">
        <ele>1212</ele>
        <time>2018-04-20T08:05:14.000Z</time>
      </trkpt>
      <trkpt lat="42.50928" lon="2.38139">
        <ele>1212</ele>
        <time>2018-04-20T08:05:24.000Z</time>
      </trkpt>
      <trkpt lat="42.5092" lon="2.38144">
        <ele>1214</ele>
        <time>2018-04-20T08:05:32.000Z</time>
      </trkpt>
      <trkpt lat="42.5091" lon="2.38149">
        <ele>1218</ele>
        <time>2018-04-20T08:05:40.000Z</time>
      </trkpt>
      <trkpt lat="42.50903" lon="2.38157">
        <ele>1219</ele>
        <time>2018-04-20T08:05:48.000Z</time>
      </trkpt>
      <trkpt lat="42.50894" lon="2.38162">
        <ele>1220</ele>
        <time>2018-04-20T08:05:59.000Z</time>
      </trkpt>
      <trkpt lat="42.50886" lon="2.3817">
        <ele>1242</ele>
        <time>2018-04-20T08:06:08.000Z</time>
      </trkpt>
      <trkpt lat="42.50877" lon="2.38165">
        <ele>1221</ele>
        <time>2018-04-20T08:06:19.000Z</time>
      </trkpt>
      <trkpt lat="42.50869" lon="2.38153">
        <ele>1221</ele>
        <time>2018-04-20T08:06:32.000Z</time>
      </trkpt>
      <trkpt lat="42.5086" lon="2.38149">
        <ele>1223</ele>
        <time>2018-04-20T08:06:35.000Z</time>
      </trkpt>
      <trkpt lat="42.50855" lon="2.38137">
        <ele>1221</ele>
        <time>2018-04-20T08:06:49.000Z</time>
      </trkpt>
      <trkpt lat="42.50847" lon="2.3813">
        <ele>1221</ele>
        <time>2018-04-20T08:06:57.000Z</time>
      </trkpt>
      <trkpt lat="42.50842" lon="2.3812">
        <ele>1219</ele>
        <time>2018-04-20T08:07:15.000Z</time>
      </trkpt>
      <trkpt lat="42.50848" lon="2.38109">
        <ele>1217</ele>
        <time>2018-04-20T08:07:23.000Z</time>
      </trkpt>
      <trkpt lat="42.50853" lon="2.38098">
        <ele>1216</ele>
        <time>2018-04-20T08:07:31.000Z</time>
      </trkpt>
      <trkpt lat="42.50853" lon="2.38084">
        <ele>1215</ele>
        <time>2018-04-20T08:07:36.000Z</time>
      </trkpt>
      <trkpt lat="42.50855" lon="2.38072">
        <ele>1204</ele>
        <time>2018-04-20T08:07:45.000Z</time>
      </trkpt>
      <trkpt lat="42.50852" lon="2.3806">
        <ele>1202</ele>
        <time>2018-04-20T08:07:53.000Z</time>
      </trkpt>
      <trkpt lat="42.5085" lon="2.38048">
        <ele>1201</ele>
        <time>2018-04-20T08:08:01.000Z</time>
      </trkpt>
      <trkpt lat="42.50851" lon="2.38034">
        <ele>1201</ele>
        <time>2018-04-20T08:08:11.000Z</time>
      </trkpt>
      <trkpt lat="42.50853" lon="2.38022">
        <ele>1201</ele>
        <time>2018-04-20T08:08:19.000Z</time>
      </trkpt>
      <trkpt lat="42.50852" lon="2.38009">
        <ele>1204</ele>
        <time>2018-04-20T08:08:30.000Z</time>
      </trkpt>
      <trkpt lat="42.50848" lon="2.37997">
        <ele>1205</ele>
        <time>2018-04-20T08:08:36.000Z</time>
      </trkpt>
      <trkpt lat="42.50848" lon="2.37984">
        <ele>1202</ele>
        <time>2018-04-20T08:08:44.000Z</time>
      </trkpt>
      <trkpt lat="42.50851" lon="2.37972">
        <ele>1199</ele>
        <time>2018-04-20T08:08:50.000Z</time>
      </trkpt>
      <trkpt lat="42.50854" lon="2.3796">
        <ele>1197</ele>
        <time>2018-04-20T08:08:57.000Z</time>
      </trkpt>
      <trkpt lat="42.50854" lon="2.37948">
        <ele>1198</ele>
        <time>2018-04-20T08:09:04.000Z</time>
      </trkpt>
      <trkpt lat="42.50854" lon="2.37935">
        <ele>1201</ele>
        <time>2018-04-20T08:09:12.000Z</time>
      </trkpt>
      <trkpt lat="42.5085" lon="2.37924">
        <ele>1206</ele>
        <time>2018-04-20T08:09:22.000Z</time>
      </trkpt>
      <trkpt lat="42.5085" lon="2.3791">
        <ele>1211</ele>
        <time>2018-04-20T08:09:30.000Z</time>
      </trkpt>
      <trkpt lat="42.5085" lon="2.37898">
        <ele>1208</ele>
        <time>2018-04-20T08:09:37.000Z</time>
      </trkpt>
      <trkpt lat="42.50849" lon="2.37885">
        <ele>1207</ele>
        <time>2018-04-20T08:09:44.000Z</time>
      </trkpt>
      <trkpt lat="42.50851" lon="2.37873">
        <ele>1206</ele>
        <time>2018-04-20T08:09:51.000Z</time>
      </trkpt>
      <trkpt lat="42.50849" lon="2.3786">
        <ele>1210</ele>
        <time>2018-04-20T08:09:59.000Z</time>
      </trkpt>
      <trkpt lat="42.50848" lon="2.37846">
        <ele>1215</ele>
        <time>2018-04-20T08:10:07.000Z</time>
      </trkpt>
      <trkpt lat="42.5085" lon="2.37835">
        <ele>1217</ele>
        <time>2018-04-20T08:10:16.000Z</time>
      </trkpt>
      <trkpt lat="42.50857" lon="2.37826">
        <ele>1219</ele>
        <time>2018-04-20T08:10:25.000Z</time>
      </trkpt>
      <trkpt lat="42.50864" lon="2.37817">
        <ele>1215</ele>
        <time>2018-04-20T08:10:32.000Z</time>
      </trkpt>
      <trkpt lat="42.50869" lon="2.37806">
        <ele>1214</ele>
        <time>2018-04-20T08:10:38.000Z</time>
      </trkpt>
      <trkpt lat="42.50873" lon="2.37793">
        <ele>1213</ele>
        <time>2018-04-20T08:10:47.000Z</time>
      </trkpt>
      <trkpt lat="42.50877" lon="2.37782">
        <ele>1213</ele>
        <time>2018-04-20T08:10:55.000Z</time>
      </trkpt>
      <trkpt lat="42.5088" lon="2.37769">
        <ele>1212</ele>
        <time>2018-04-20T08:11:04.000Z</time>
      </trkpt>
      <trkpt lat="42.50882" lon="2.37757">
        <ele>1211</ele>
        <time>2018-04-20T08:11:12.000Z</time>
      </trkpt>
      <trkpt lat="42.50887" lon="2.37746">
        <ele>1215</ele>
        <time>2018-04-20T08:11:19.000Z</time>
      </trkpt>
      <trkpt lat="42.50888" lon="2.37733">
        <ele>1215</ele>
        <time>2018-04-20T08:11:26.000Z</time>
      </trkpt>
      <trkpt lat="42.50888" lon="2.37719">
        <ele>1217</ele>
        <time>2018-04-20T08:11:33.000Z</time>
      </trkpt>
      <trkpt lat="42.50889" lon="2.37707">
        <ele>1217</ele>
        <time>2018-04-20T08:11:44.000Z</time>
      </trkpt>
      <trkpt lat="42.50888" lon="2.37694">
        <ele>1218</ele>
        <time>2018-04-20T08:11:51.000Z</time>
      </trkpt>
      <trkpt lat="42.50887" lon="2.37681">
        <ele>1217</ele>
        <time>2018-04-20T08:11:59.000Z</time>
      </trkpt>
      <trkpt lat="42.50882" lon="2.37671">
        <ele>1220</ele>
        <time>2018-04-20T08:12:07.000Z</time>
      </trkpt>
      <trkpt lat="42.50876" lon="2.37661">
        <ele>1227</ele>
        <time>2018-04-20T08:12:19.000Z</time>
      </trkpt>
      <trkpt lat="42.50869" lon="2.37653">
        <ele>1232</ele>
        <time>2018-04-20T08:12:29.000Z</time>
      </trkpt>
      <trkpt lat="42.50866" lon="2.37641">
        <ele>1232</ele>
        <time>2018-04-20T08:12:37.000Z</time>
      </trkpt>
      <trkpt lat="42.50867" lon="2.37628">
        <ele>1232</ele>
        <time>2018-04-20T08:12:44.000Z</time>
      </trkpt>
      <trkpt lat="42.50869" lon="2.37616">
        <ele>1232</ele>
        <time>2018-04-20T08:12:53.000Z</time>
      </trkpt>
      <trkpt lat="42.5087" lon="2.37602">
        <ele>1232</ele>
        <time>2018-04-20T08:13:03.000Z</time>
      </trkpt>
      <trkpt lat="42.50869" lon="2.3759">
        <ele>1233</ele>
        <time>2018-04-20T08:13:13.000Z</time>
      </trkpt>
      <trkpt lat="42.50872" lon="2.37575">
        <ele>1236</ele>
        <time>2018-04-20T08:13:22.000Z</time>
      </trkpt>
      <trkpt lat="42.50868" lon="2.37563">
        <ele>1238</ele>
        <time>2018-04-20T08:13:30.000Z</time>
      </trkpt>
      <trkpt lat="42.50864" lon="2.3755">
        <ele>1239</ele>
        <time>2018-04-20T08:13:42.000Z</time>
      </trkpt>
      <trkpt lat="42.50865" lon="2.37538">
        <ele>1240</ele>
        <time>2018-04-20T08:13:54.000Z</time>
      </trkpt>
      <trkpt lat="42.50865" lon="2.37526">
        <ele>1241</ele>
        <time>2018-04-20T08:14:01.000Z</time>
      </trkpt>
      <trkpt lat="42.50867" lon="2.37514">
        <ele>1241</ele>
        <time>2018-04-20T08:14:08.000Z</time>
      </trkpt>
      <trkpt lat="42.50871" lon="2.37499">
        <ele>1243</ele>
        <time>2018-04-20T08:14:17.000Z</time>
      </trkpt>
      <trkpt lat="42.50872" lon="2.37486">
        <ele>1242</ele>
        <time>2018-04-20T08:14:28.000Z</time>
      </trkpt>
      <trkpt lat="42.50869" lon="2.37474">
        <ele>1244</ele>
        <time>2018-04-20T08:14:47.000Z</time>
      </trkpt>
      <trkpt lat="42.50865" lon="2.37462">
        <ele>1245</ele>
        <time>2018-04-20T08:14:56.000Z</time>
      </trkpt>
      <trkpt lat="42.50861" lon="2.37449">
        <ele>1246</ele>
        <time>2018-04-20T08:15:06.000Z</time>
      </trkpt>
      <trkpt lat="42.50857" lon="2.37437">
        <ele>1249</ele>
        <time>2018-04-20T08:15:15.000Z</time>
      </trkpt>
      <trkpt lat="42.50853" lon="2.37425">
        <ele>1253</ele>
        <time>2018-04-20T08:15:24.000Z</time>
      </trkpt>
      <trkpt lat="42.50853" lon="2.37413">
        <ele>1256</ele>
        <time>2018-04-20T08:15:36.000Z</time>
      </trkpt>
      <trkpt lat="42.50856" lon="2.37401">
        <ele>1253</ele>
        <time>2018-04-20T08:15:59.000Z</time>
      </trkpt>
      <trkpt lat="42.50857" lon="2.37389">
        <ele>1252</ele>
        <time>2018-04-20T08:16:08.000Z</time>
      </trkpt>
      <trkpt lat="42.5086" lon="2.37376">
        <ele>1251</ele>
        <time>2018-04-20T08:16:18.000Z</time>
      </trkpt>
      <trkpt lat="42.50864" lon="2.37364">
        <ele>1251</ele>
        <time>2018-04-20T08:16:24.000Z</time>
      </trkpt>
      <trkpt lat="42.50866" lon="2.3735">
        <ele>1251</ele>
        <time>2018-04-20T08:16:29.000Z</time>
      </trkpt>
      <trkpt lat="42.50866" lon="2.37338">
        <ele>1253</ele>
        <time>2018-04-20T08:16:39.000Z</time>
      </trkpt>
      <trkpt lat="42.50872" lon="2.37328">
        <ele>1257</ele>
        <time>2018-04-20T08:16:47.000Z</time>
      </trkpt>
      <trkpt lat="42.50876" lon="2.37317">
        <ele>1256</ele>
        <time>2018-04-20T08:16:57.000Z</time>
      </trkpt>
      <trkpt lat="42.50883" lon="2.37307">
        <ele>1255</ele>
        <time>2018-04-20T08:17:09.000Z</time>
      </trkpt>
      <trkpt lat="42.50887" lon="2.37295">
        <ele>1256</ele>
        <time>2018-04-20T08:17:18.000Z</time>
      </trkpt>
      <trkpt lat="42.50892" lon="2.37283">
        <ele>1256</ele>
        <time>2018-04-20T08:17:27.000Z</time>
      </trkpt>
      <trkpt lat="42.50895" lon="2.37272">
        <ele>1256</ele>
        <time>2018-04-20T08:17:37.000Z</time>
      </trkpt>
      <trkpt lat="42.50903" lon="2.37265">
        <ele>1255</ele>
        <time>2018-04-20T08:17:45.000Z</time>
      </trkpt>
      <trkpt lat="42.50908" lon="2.37256">
        <ele>1253</ele>
        <time>2018-04-20T08:17:52.000Z</time>
      </trkpt>
      <trkpt lat="42.50914" lon="2.37245">
        <ele>1256</ele>
        <time>2018-04-20T08:17:58.000Z</time>
      </trkpt>
      <trkpt lat="42.50922" lon="2.37238">
        <ele>1247</ele>
        <time>2018-04-20T08:18:06.000Z</time>
      </trkpt>
      <trkpt lat="42.50932" lon="2.37234">
        <ele>1245</ele>
        <time>2018-04-20T08:18:10.000Z</time>
      </trkpt>
      <trkpt lat="42.5094" lon="2.37228">
        <ele>1243</ele>
        <time>2018-04-20T08:18:16.000Z</time>
      </trkpt>
      <trkpt lat="42.50948" lon="2.3722">
        <ele>1242</ele>
        <time>2018-04-20T08:18:25.000Z</time>
      </trkpt>
      <trkpt lat="42.50957" lon="2.37215">
        <ele>1240</ele>
        <time>2018-04-20T08:18:32.000Z</time>
      </trkpt>
      <trkpt lat="42.50966" lon="2.37209">
        <ele>1238</ele>
        <time>2018-04-20T08:18:36.000Z</time>
      </trkpt>
      <trkpt lat="42.50975" lon="2.37203">
        <ele>1237</ele>
        <time>2018-04-20T08:18:42.000Z</time>
      </trkpt>
      <trkpt lat="42.50983" lon="2.37196">
        <ele>1236</ele>
        <time>2018-04-20T08:18:48.000Z</time>
      </trkpt>
      <trkpt lat="42.50991" lon="2.37191">
        <ele>1234</ele>
        <time>2018-04-20T08:18:57.000Z</time>
      </trkpt>
      <trkpt lat="42.51001" lon="2.37184">
        <ele>1217</ele>
        <time>2018-04-20T08:19:05.000Z</time>
      </trkpt>
      <trkpt lat="42.51006" lon="2.37173">
        <ele>1221</ele>
        <time>2018-04-20T08:19:15.000Z</time>
      </trkpt>
      <trkpt lat="42.50998" lon="2.37168">
        <ele>1229</ele>
        <time>2018-04-20T08:19:28.000Z</time>
      </trkpt>
      <trkpt lat="42.50998" lon="2.37156">
        <ele>1233</ele>
        <time>2018-04-20T08:20:36.000Z</time>
      </trkpt>
      <trkpt lat="42.50995" lon="2.37144">
        <ele>1235</ele>
        <time>2018-04-20T08:20:47.000Z</time>
      </trkpt>
      <trkpt lat="42.50988" lon="2.37136">
        <ele>1236</ele>
        <time>2018-04-20T08:21:02.000Z</time>
      </trkpt>
      <trkpt lat="42.50989" lon="2.37123">
        <ele>1235</ele>
        <time>2018-04-20T08:22:15.000Z</time>
      </trkpt>
      <trkpt lat="42.50988" lon="2.37111">
        <ele>1232</ele>
        <time>2018-04-20T08:22:31.000Z</time>
      </trkpt>
      <trkpt lat="42.5098" lon="2.37104">
        <ele>1233</ele>
        <time>2018-04-20T08:22:37.000Z</time>
      </trkpt>
      <trkpt lat="42.50976" lon="2.37093">
        <ele>1232</ele>
        <time>2018-04-20T08:22:47.000Z</time>
      </trkpt>
      <trkpt lat="42.50971" lon="2.37082">
        <ele>1220</ele>
        <time>2018-04-20T08:22:58.000Z</time>
      </trkpt>
      <trkpt lat="42.50965" lon="2.37073">
        <ele>1221</ele>
        <time>2018-04-20T08:23:06.000Z</time>
      </trkpt>
      <trkpt lat="42.50958" lon="2.37065">
        <ele>1223</ele>
        <time>2018-04-20T08:23:12.000Z</time>
      </trkpt>
      <trkpt lat="42.50953" lon="2.37054">
        <ele>1223</ele>
        <time>2018-04-20T08:23:24.000Z</time>
      </trkpt>
      <trkpt lat="42.50949" lon="2.37042">
        <ele>1222</ele>
        <time>2018-04-20T08:23:32.000Z</time>
      </trkpt>
      <trkpt lat="42.50944" lon="2.37032">
        <ele>1221</ele>
        <time>2018-04-20T08:23:39.000Z</time>
      </trkpt>
      <trkpt lat="42.50938" lon="2.37021">
        <ele>1222</ele>
        <time>2018-04-20T08:23:49.000Z</time>
      </trkpt>
      <trkpt lat="42.50932" lon="2.37012">
        <ele>1223</ele>
        <time>2018-04-20T08:23:57.000Z</time>
      </trkpt>
      <trkpt lat="42.50926" lon="2.37001">
        <ele>1225</ele>
        <time>2018-04-20T08:24:06.000Z</time>
      </trkpt>
      <trkpt lat="42.50923" lon="2.36989">
        <ele>1213</ele>
        <time>2018-04-20T08:24:16.000Z</time>
      </trkpt>
      <trkpt lat="42.50916" lon="2.36979">
        <ele>1224</ele>
        <time>2018-04-20T08:24:23.000Z</time>
      </trkpt>
      <trkpt lat="42.50911" lon="2.36967">
        <ele>1222</ele>
        <time>2018-04-20T08:24:31.000Z</time>
      </trkpt>
      <trkpt lat="42.50904" lon="2.36959">
        <ele>1220</ele>
        <time>2018-04-20T08:24:38.000Z</time>
      </trkpt>
      <trkpt lat="42.50898" lon="2.3695">
        <ele>1219</ele>
        <time>2018-04-20T08:24:45.000Z</time>
      </trkpt>
      <trkpt lat="42.5089" lon="2.36944">
        <ele>1218</ele>
        <time>2018-04-20T08:24:55.000Z</time>
      </trkpt>
      <trkpt lat="42.50886" lon="2.36933">
        <ele>1217</ele>
        <time>2018-04-20T08:25:06.000Z</time>
      </trkpt>
      <trkpt lat="42.50878" lon="2.36924">
        <ele>1218</ele>
        <time>2018-04-20T08:25:15.000Z</time>
      </trkpt>
      <trkpt lat="42.5087" lon="2.36915">
        <ele>1205</ele>
        <time>2018-04-20T08:25:24.000Z</time>
      </trkpt>
      <trkpt lat="42.50864" lon="2.36906">
        <ele>1205</ele>
        <time>2018-04-20T08:25:34.000Z</time>
      </trkpt>
      <trkpt lat="42.50856" lon="2.36898">
        <ele>1206</ele>
        <time>2018-04-20T08:25:45.000Z</time>
      </trkpt>
      <trkpt lat="42.50847" lon="2.36897">
        <ele>1208</ele>
        <time>2018-04-20T08:31:40.999Z</time>
      </trkpt>
      <trkpt lat="42.50837" lon="2.36896">
        <ele>1209</ele>
        <time>2018-04-20T08:31:48.999Z</time>
      </trkpt>
      <trkpt lat="42.50827" lon="2.369">
        <ele>1211</ele>
        <time>2018-04-20T08:31:57.999Z</time>
      </trkpt>
      <trkpt lat="42.50818" lon="2.36902">
        <ele>1210</ele>
        <time>2018-04-20T08:32:36.999Z</time>
      </trkpt>
      <trkpt lat="42.50823" lon="2.36892">
        <ele>1209</ele>
        <time>2018-04-20T08:35:37.999Z</time>
      </trkpt>
      <trkpt lat="42.50825" lon="2.36879">
        <ele>1208</ele>
        <time>2018-04-20T08:35:45.999Z</time>
      </trkpt>
      <trkpt lat="42.50817" lon="2.36874">
        <ele>1207</ele>
        <time>2018-04-20T08:35:52.999Z</time>
      </trkpt>
      <trkpt lat="42.50807" lon="2.36872">
        <ele>1206</ele>
        <time>2018-04-20T08:35:57.999Z</time>
      </trkpt>
      <trkpt lat="42.50798" lon="2.36867">
        <ele>1205</ele>
        <time>2018-04-20T08:36:05.999Z</time>
      </trkpt>
      <trkpt lat="42.50788" lon="2.36865">
        <ele>1204</ele>
        <time>2018-04-20T08:36:14.999Z</time>
      </trkpt>
      <trkpt lat="42.50779" lon="2.36864">
        <ele>1203</ele>
        <time>2018-04-20T08:36:22.999Z</time>
      </trkpt>
      <trkpt lat="42.5077" lon="2.36865">
        <ele>1203</ele>
        <time>2018-04-20T08:36:31.999Z</time>
      </trkpt>
      <trkpt lat="42.50761" lon="2.3687">
        <ele>1202</ele>
        <time>2018-04-20T08:36:40.999Z</time>
      </trkpt>
      <trkpt lat="42.50753" lon="2.36876">
        <ele>1202</ele>
        <time>2018-04-20T08:36:57.999Z</time>
      </trkpt>
      <trkpt lat="42.50747" lon="2.36885">
        <ele>1186</ele>
        <time>2018-04-20T08:37:27.999Z</time>
      </trkpt>
      <trkpt lat="42.50742" lon="2.36873">
        <ele>1185</ele>
        <time>2018-04-20T08:38:03.999Z</time>
      </trkpt>
      <trkpt lat="42.5075" lon="2.36865">
        <ele>1186</ele>
        <time>2018-04-20T08:39:31.999Z</time>
      </trkpt>
      <trkpt lat="42.50758" lon="2.36861">
        <ele>1202</ele>
        <time>2018-04-20T08:39:43.999Z</time>
      </trkpt>
      <trkpt lat="42.50767" lon="2.36867">
        <ele>1203</ele>
        <time>2018-04-20T08:39:56.999Z</time>
      </trkpt>
      <trkpt lat="42.50776" lon="2.36869">
        <ele>1203</ele>
        <time>2018-04-20T08:40:06.999Z</time>
      </trkpt>
      <trkpt lat="42.50785" lon="2.36872">
        <ele>1204</ele>
        <time>2018-04-20T08:40:16.999Z</time>
      </trkpt>
      <trkpt lat="42.50794" lon="2.36873">
        <ele>1205</ele>
        <time>2018-04-20T08:40:28.999Z</time>
      </trkpt>
      <trkpt lat="42.50803" lon="2.36876">
        <ele>1206</ele>
        <time>2018-04-20T08:40:38.999Z</time>
      </trkpt>
      <trkpt lat="42.50804" lon="2.36889">
        <ele>1207</ele>
        <time>2018-04-20T08:41:07.999Z</time>
      </trkpt>
      <trkpt lat="42.50794" lon="2.36893">
        <ele>1206</ele>
        <time>2018-04-20T08:41:44.999Z</time>
      </trkpt>
      <trkpt lat="42.50785" lon="2.36895">
        <ele>1205</ele>
        <time>2018-04-20T08:41:55.999Z</time>
      </trkpt>
      <trkpt lat="42.5078" lon="2.36906">
        <ele>1204</ele>
        <time>2018-04-20T08:42:05.999Z</time>
      </trkpt>
      <trkpt lat="42.50777" lon="2.36918">
        <ele>1211</ele>
        <time>2018-04-20T08:42:12.999Z</time>
      </trkpt>
      <trkpt lat="42.50771" lon="2.36929">
        <ele>1211</ele>
        <time>2018-04-20T08:42:21.999Z</time>
      </trkpt>
      <trkpt lat="42.50769" lon="2.36941">
        <ele>1213</ele>
        <time>2018-04-20T08:42:32.999Z</time>
      </trkpt>
      <trkpt lat="42.50769" lon="2.36954">
        <ele>1215</ele>
        <time>2018-04-20T08:42:42.999Z</time>
      </trkpt>
      <trkpt lat="42.50764" lon="2.36966">
        <ele>1216</ele>
        <time>2018-04-20T08:43:13.999Z</time>
      </trkpt>
      <trkpt lat="42.50759" lon="2.36977">
        <ele>1216</ele>
        <time>2018-04-20T08:43:22.999Z</time>
      </trkpt>
      <trkpt lat="42.50753" lon="2.36987">
        <ele>1216</ele>
        <time>2018-04-20T08:43:32.999Z</time>
      </trkpt>
      <trkpt lat="42.5075" lon="2.37">
        <ele>1214</ele>
        <time>2018-04-20T08:43:52.999Z</time>
      </trkpt>
      <trkpt lat="42.50748" lon="2.37013">
        <ele>1208</ele>
        <time>2018-04-20T08:44:03.999Z</time>
      </trkpt>
      <trkpt lat="42.50743" lon="2.37023">
        <ele>1206</ele>
        <time>2018-04-20T08:44:14.999Z</time>
      </trkpt>
      <trkpt lat="42.50742" lon="2.37036">
        <ele>1206</ele>
        <time>2018-04-20T08:44:23.999Z</time>
      </trkpt>
      <trkpt lat="42.50737" lon="2.37048">
        <ele>1206</ele>
        <time>2018-04-20T08:44:35.999Z</time>
      </trkpt>
      <trkpt lat="42.50734" lon="2.3706">
        <ele>1208</ele>
        <time>2018-04-20T08:44:46.999Z</time>
      </trkpt>
      <trkpt lat="42.50732" lon="2.37072">
        <ele>1211</ele>
        <time>2018-04-20T08:44:52.999Z</time>
      </trkpt>
      <trkpt lat="42.50729" lon="2.37084">
        <ele>1221</ele>
        <time>2018-04-20T08:45:02.999Z</time>
      </trkpt>
      <trkpt lat="42.50723" lon="2.37093">
        <ele>1219</ele>
        <time>2018-04-20T08:45:12.999Z</time>
      </trkpt>
      <trkpt lat="42.50721" lon="2.37107">
        <ele>1219</ele>
        <time>2018-04-20T08:45:21.999Z</time>
      </trkpt>
      <trkpt lat="42.50715" lon="2.37116">
        <ele>1218</ele>
        <time>2018-04-20T08:45:31.999Z</time>
      </trkpt>
      <trkpt lat="42.5071" lon="2.37126">
        <ele>1218</ele>
        <time>2018-04-20T08:45:40.999Z</time>
      </trkpt>
      <trkpt lat="42.50703" lon="2.37135">
        <ele>1218</ele>
        <time>2018-04-20T08:45:50.999Z</time>
      </trkpt>
      <trkpt lat="42.50695" lon="2.37142">
        <ele>1216</ele>
        <time>2018-04-20T08:45:59.999Z</time>
      </trkpt>
      <trkpt lat="42.50692" lon="2.37153">
        <ele>1216</ele>
        <time>2018-04-20T08:46:09.999Z</time>
      </trkpt>
      <trkpt lat="42.50687" lon="2.37164">
        <ele>1215</ele>
        <time>2018-04-20T08:46:19.999Z</time>
      </trkpt>
      <trkpt lat="42.50684" lon="2.37177">
        <ele>1228</ele>
        <time>2018-04-20T08:46:30.999Z</time>
      </trkpt>
      <trkpt lat="42.50679" lon="2.37188">
        <ele>1231</ele>
        <time>2018-04-20T08:46:41.999Z</time>
      </trkpt>
      <trkpt lat="42.50675" lon="2.37198">
        <ele>1234</ele>
        <time>2018-04-20T08:46:57.999Z</time>
      </trkpt>
      <trkpt lat="42.50669" lon="2.37209">
        <ele>1237</ele>
        <time>2018-04-20T08:47:34.999Z</time>
      </trkpt>
      <trkpt lat="42.5066" lon="2.37213">
        <ele>1214</ele>
        <time>2018-04-20T08:47:43.999Z</time>
      </trkpt>
      <trkpt lat="42.50655" lon="2.37224">
        <ele>1217</ele>
        <time>2018-04-20T08:47:58.999Z</time>
      </trkpt>
      <trkpt lat="42.50652" lon="2.37237">
        <ele>1222</ele>
        <time>2018-04-20T08:48:08.999Z</time>
      </trkpt>
      <trkpt lat="42.5065" lon="2.37248">
        <ele>1224</ele>
        <time>2018-04-20T08:48:18.999Z</time>
      </trkpt>
      <trkpt lat="42.50645" lon="2.3726">
        <ele>1240</ele>
        <time>2018-04-20T08:48:28.999Z</time>
      </trkpt>
      <trkpt lat="42.50637" lon="2.37267">
        <ele>1240</ele>
        <time>2018-04-20T08:48:39.999Z</time>
      </trkpt>
      <trkpt lat="42.50631" lon="2.37277">
        <ele>1240</ele>
        <time>2018-04-20T08:48:51.999Z</time>
      </trkpt>
      <trkpt lat="42.50627" lon="2.37288">
        <ele>1242</ele>
        <time>2018-04-20T08:49:02.999Z</time>
      </trkpt>
      <trkpt lat="42.50622" lon="2.373">
        <ele>1243</ele>
        <time>2018-04-20T08:49:18.999Z</time>
      </trkpt>
      <trkpt lat="42.50613" lon="2.37305">
        <ele>1243</ele>
        <time>2018-04-20T08:49:33.999Z</time>
      </trkpt>
      <trkpt lat="42.50604" lon="2.37305">
        <ele>1241</ele>
        <time>2018-04-20T08:50:14.999Z</time>
      </trkpt>
      <trkpt lat="42.50596" lon="2.373">
        <ele>1239</ele>
        <time>2018-04-20T08:50:42.999Z</time>
      </trkpt>
      <trkpt lat="42.50586" lon="2.37301">
        <ele>1239</ele>
        <time>2018-04-20T08:51:41.999Z</time>
      </trkpt>
      <trkpt lat="42.50579" lon="2.37308">
        <ele>1220</ele>
        <time>2018-04-20T08:51:49.999Z</time>
      </trkpt>
      <trkpt lat="42.50571" lon="2.37315">
        <ele>1222</ele>
        <time>2018-04-20T08:51:57.999Z</time>
      </trkpt>
      <trkpt lat="42.50564" lon="2.37324">
        <ele>1222</ele>
        <time>2018-04-20T08:52:17.999Z</time>
      </trkpt>
      <trkpt lat="42.50566" lon="2.37337">
        <ele>1239</ele>
        <time>2018-04-20T08:54:12.999Z</time>
      </trkpt>
      <trkpt lat="42.50561" lon="2.37347">
        <ele>1237</ele>
        <time>2018-04-20T08:55:37.999Z</time>
      </trkpt>
      <trkpt lat="42.50557" lon="2.37358">
        <ele>1237</ele>
        <time>2018-04-20T08:56:18.999Z</time>
      </trkpt>
      <trkpt lat="42.50555" lon="2.37371">
        <ele>1238</ele>
        <time>2018-04-20T08:56:28.999Z</time>
      </trkpt>
      <trkpt lat="42.50554" lon="2.37385">
        <ele>1240</ele>
        <time>2018-04-20T08:56:39.999Z</time>
      </trkpt>
      <trkpt lat="42.50551" lon="2.37397">
        <ele>1241</ele>
        <time>2018-04-20T08:56:49.999Z</time>
      </trkpt>
      <trkpt lat="42.50552" lon="2.37412">
        <ele>1244</ele>
        <time>2018-04-20T08:56:58.999Z</time>
      </trkpt>
      <trkpt lat="42.50552" lon="2.37424">
        <ele>1259</ele>
        <time>2018-04-20T08:57:08.999Z</time>
      </trkpt>
      <trkpt lat="42.50552" lon="2.37438">
        <ele>1260</ele>
        <time>2018-04-20T08:57:20.999Z</time>
      </trkpt>
      <trkpt lat="42.50552" lon="2.3745">
        <ele>1261</ele>
        <time>2018-04-20T08:57:29.999Z</time>
      </trkpt>
      <trkpt lat="42.50549" lon="2.37463">
        <ele>1262</ele>
        <time>2018-04-20T08:57:40.999Z</time>
      </trkpt>
      <trkpt lat="42.50542" lon="2.37474">
        <ele>1262</ele>
        <time>2018-04-20T08:57:48.999Z</time>
      </trkpt>
      <trkpt lat="42.50535" lon="2.37481">
        <ele>1261</ele>
        <time>2018-04-20T08:58:07.999Z</time>
      </trkpt>
      <trkpt lat="42.50527" lon="2.37487">
        <ele>1260</ele>
        <time>2018-04-20T08:58:18.999Z</time>
      </trkpt>
      <trkpt lat="42.50522" lon="2.37498">
        <ele>1259</ele>
        <time>2018-04-20T08:58:32.999Z</time>
      </trkpt>
      <trkpt lat="42.50512" lon="2.37503">
        <ele>1269</ele>
        <time>2018-04-20T08:58:51.999Z</time>
      </trkpt>
      <trkpt lat="42.50507" lon="2.37513">
        <ele>1270</ele>
        <time>2018-04-20T08:59:13.999Z</time>
      </trkpt>
      <trkpt lat="42.50498" lon="2.37519">
        <ele>1267</ele>
        <time>2018-04-20T08:59:24.999Z</time>
      </trkpt>
      <trkpt lat="42.50488" lon="2.37521">
        <ele>1268</ele>
        <time>2018-04-20T08:59:36.999Z</time>
      </trkpt>
      <trkpt lat="42.50478" lon="2.3752">
        <ele>1269</ele>
        <time>2018-04-20T08:59:45.999Z</time>
      </trkpt>
      <trkpt lat="42.50468" lon="2.37519">
        <ele>1270</ele>
        <time>2018-04-20T08:59:55.999Z</time>
      </trkpt>
      <trkpt lat="42.50459" lon="2.37519">
        <ele>1270</ele>
        <time>2018-04-20T09:00:10.999Z</time>
      </trkpt>
      <trkpt lat="42.5045" lon="2.3752">
        <ele>1270</ele>
        <time>2018-04-20T09:00:23.999Z</time>
      </trkpt>
      <trkpt lat="42.50441" lon="2.37523">
        <ele>1269</ele>
        <time>2018-04-20T09:00:33.999Z</time>
      </trkpt>
      <trkpt lat="42.50436" lon="2.37533">
        <ele>1272</ele>
        <time>2018-04-20T09:00:51.999Z</time>
      </trkpt>
      <trkpt lat="42.50426" lon="2.37534">
        <ele>1272</ele>
        <time>2018-04-20T09:01:24.999Z</time>
      </trkpt>
      <trkpt lat="42.5042" lon="2.37544">
        <ele>1275</ele>
        <time>2018-04-20T09:01:44.999Z</time>
      </trkpt>
      <trkpt lat="42.50412" lon="2.37547">
        <ele>1265</ele>
        <time>2018-04-20T09:02:07.999Z</time>
      </trkpt>
      <trkpt lat="42.50403" lon="2.37552">
        <ele>1265</ele>
        <time>2018-04-20T09:02:26.999Z</time>
      </trkpt>
      <trkpt lat="42.50394" lon="2.37554">
        <ele>1264</ele>
        <time>2018-04-20T09:02:41.999Z</time>
      </trkpt>
      <trkpt lat="42.50385" lon="2.37559">
        <ele>1263</ele>
        <time>2018-04-20T09:03:04.999Z</time>
      </trkpt>
      <trkpt lat="42.50386" lon="2.37571">
        <ele>1267</ele>
        <time>2018-04-20T09:03:25.999Z</time>
      </trkpt>
      <trkpt lat="42.50383" lon="2.37583">
        <ele>1267</ele>
        <time>2018-04-20T09:03:40.999Z</time>
      </trkpt>
      <trkpt lat="42.50381" lon="2.37595">
        <ele>1290</ele>
        <time>2018-04-20T09:03:58.999Z</time>
      </trkpt>
      <trkpt lat="42.50379" lon="2.37608">
        <ele>1291</ele>
        <time>2018-04-20T09:04:10.999Z</time>
      </trkpt>
      <trkpt lat="42.50382" lon="2.3762">
        <ele>1294</ele>
        <time>2018-04-20T09:04:24.999Z</time>
      </trkpt>
      <trkpt lat="42.50382" lon="2.37633">
        <ele>1297</ele>
        <time>2018-04-20T09:04:33.999Z</time>
      </trkpt>
      <trkpt lat="42.5038" lon="2.37645">
        <ele>1299</ele>
        <time>2018-04-20T09:04:49.999Z</time>
      </trkpt>
      <trkpt lat="42.50382" lon="2.37658">
        <ele>1301</ele>
        <time>2018-04-20T09:05:02.999Z</time>
      </trkpt>
      <trkpt lat="42.50374" lon="2.37664">
        <ele>1299</ele>
        <time>2018-04-20T09:05:15.999Z</time>
      </trkpt>
      <trkpt lat="42.50366" lon="2.37673">
        <ele>1317</ele>
        <time>2018-04-20T09:05:23.999Z</time>
      </trkpt>
      <trkpt lat="42.50359" lon="2.37682">
        <ele>1316</ele>
        <time>2018-04-20T09:05:37.999Z</time>
      </trkpt>
      <trkpt lat="42.50352" lon="2.37691">
        <ele>1316</ele>
        <time>2018-04-20T09:06:05.999Z</time>
      </trkpt>
      <trkpt lat="42.50346" lon="2.37701">
        <ele>1318</ele>
        <time>2018-04-20T09:06:16.999Z</time>
      </trkpt>
      <trkpt lat="42.50343" lon="2.37713">
        <ele>1320</ele>
        <time>2018-04-20T09:06:34.999Z</time>
      </trkpt>
      <trkpt lat="42.50336" lon="2.3772">
        <ele>1321</ele>
        <time>2018-04-20T09:06:42.999Z</time>
      </trkpt>
      <trkpt lat="42.50328" lon="2.37727">
        <ele>1299</ele>
        <time>2018-04-20T09:07:59.999Z</time>
      </trkpt>
      <trkpt lat="42.50324" lon="2.37738">
        <ele>1304</ele>
        <time>2018-04-20T09:08:08.999Z</time>
      </trkpt>
      <trkpt lat="42.5032" lon="2.3775">
        <ele>1306</ele>
        <time>2018-04-20T09:08:15.999Z</time>
      </trkpt>
      <trkpt lat="42.50313" lon="2.37758">
        <ele>1311</ele>
        <time>2018-04-20T09:08:24.999Z</time>
      </trkpt>
      <trkpt lat="42.5031" lon="2.3777">
        <ele>1310</ele>
        <time>2018-04-20T09:08:37.999Z</time>
      </trkpt>
      <trkpt lat="42.50304" lon="2.3778">
        <ele>1309</ele>
        <time>2018-04-20T09:08:45.999Z</time>
      </trkpt>
      <trkpt lat="42.50297" lon="2.37788">
        <ele>1308</ele>
        <time>2018-04-20T09:08:51.999Z</time>
      </trkpt>
      <trkpt lat="42.50293" lon="2.37799">
        <ele>1308</ele>
        <time>2018-04-20T09:08:59.999Z</time>
      </trkpt>
      <trkpt lat="42.50284" lon="2.37806">
        <ele>1307</ele>
        <time>2018-04-20T09:09:05.999Z</time>
      </trkpt>
      <trkpt lat="42.50276" lon="2.37812">
        <ele>1305</ele>
        <time>2018-04-20T09:09:10.999Z</time>
      </trkpt>
      <trkpt lat="42.50268" lon="2.37819">
        <ele>1302</ele>
        <time>2018-04-20T09:09:17.999Z</time>
      </trkpt>
      <trkpt lat="42.50262" lon="2.37831">
        <ele>1300</ele>
        <time>2018-04-20T09:09:25.999Z</time>
      </trkpt>
      <trkpt lat="42.50259" lon="2.37842">
        <ele>1305</ele>
        <time>2018-04-20T09:09:38.999Z</time>
      </trkpt>
      <trkpt lat="42.50259" lon="2.37855">
        <ele>1310</ele>
        <time>2018-04-20T09:09:50.999Z</time>
      </trkpt>
      <trkpt lat="42.50258" lon="2.37869">
        <ele>1314</ele>
        <time>2018-04-20T09:09:58.999Z</time>
      </trkpt>
      <trkpt lat="42.50253" lon="2.3788">
        <ele>1315</ele>
        <time>2018-04-20T09:10:12.999Z</time>
      </trkpt>
      <trkpt lat="42.5025" lon="2.37892">
        <ele>1299</ele>
        <time>2018-04-20T09:10:25.999Z</time>
      </trkpt>
      <trkpt lat="42.50241" lon="2.37898">
        <ele>1300</ele>
        <time>2018-04-20T09:10:40.999Z</time>
      </trkpt>
      <trkpt lat="42.50243" lon="2.3791">
        <ele>1304</ele>
        <time>2018-04-20T09:10:58.999Z</time>
      </trkpt>
      <trkpt lat="42.5024" lon="2.37922">
        <ele>1310</ele>
        <time>2018-04-20T09:11:15.999Z</time>
      </trkpt>
      <trkpt lat="42.50236" lon="2.37934">
        <ele>1312</ele>
        <time>2018-04-20T09:11:28.999Z</time>
      </trkpt>
      <trkpt lat="42.50228" lon="2.37941">
        <ele>1312</ele>
        <time>2018-04-20T09:11:32.999Z</time>
      </trkpt>
      <trkpt lat="42.50219" lon="2.37944">
        <ele>1312</ele>
        <time>2018-04-20T09:11:37.999Z</time>
      </trkpt>
      <trkpt lat="42.5021" lon="2.37946">
        <ele>1312</ele>
        <time>2018-04-20T09:11:44.999Z</time>
      </trkpt>
      <trkpt lat="42.50201" lon="2.37953">
        <ele>1312</ele>
        <time>2018-04-20T09:12:01.999Z</time>
      </trkpt>
      <trkpt lat="42.50195" lon="2.37963">
        <ele>1313</ele>
        <time>2018-04-20T09:12:20.999Z</time>
      </trkpt>
      <trkpt lat="42.50186" lon="2.37971">
        <ele>1314</ele>
        <time>2018-04-20T09:12:32.999Z</time>
      </trkpt>
      <trkpt lat="42.50186" lon="2.37958">
        <ele>1312</ele>
        <time>2018-04-20T09:13:53.999Z</time>
      </trkpt>
      <trkpt lat="42.50177" lon="2.37963">
        <ele>1312</ele>
        <time>2018-04-20T09:14:53.999Z</time>
      </trkpt>
      <trkpt lat="42.50171" lon="2.37953">
        <ele>1310</ele>
        <time>2018-04-20T09:15:54.999Z</time>
      </trkpt>
      <trkpt lat="42.50164" lon="2.37946">
        <ele>1311</ele>
        <time>2018-04-20T09:16:27.999Z</time>
      </trkpt>
      <trkpt lat="42.50158" lon="2.37937">
        <ele>1309</ele>
        <time>2018-04-20T09:16:57.999Z</time>
      </trkpt>
      <trkpt lat="42.50152" lon="2.37926">
        <ele>1306</ele>
        <time>2018-04-20T09:17:09.999Z</time>
      </trkpt>
      <trkpt lat="42.50146" lon="2.37917">
        <ele>1295</ele>
        <time>2018-04-20T09:17:18.999Z</time>
      </trkpt>
      <trkpt lat="42.5014" lon="2.37907">
        <ele>1296</ele>
        <time>2018-04-20T09:17:27.999Z</time>
      </trkpt>
      <trkpt lat="42.50134" lon="2.37898">
        <ele>1296</ele>
        <time>2018-04-20T09:18:08.999Z</time>
      </trkpt>
      <trkpt lat="42.50125" lon="2.37892">
        <ele>1297</ele>
        <time>2018-04-20T09:18:17.999Z</time>
      </trkpt>
      <trkpt lat="42.50118" lon="2.37882">
        <ele>1296</ele>
        <time>2018-04-20T09:18:25.999Z</time>
      </trkpt>
      <trkpt lat="42.5011" lon="2.37876">
        <ele>1296</ele>
        <time>2018-04-20T09:18:58.999Z</time>
      </trkpt>
      <trkpt lat="42.50101" lon="2.37878">
        <ele>1298</ele>
        <time>2018-04-20T09:19:28.999Z</time>
      </trkpt>
      <trkpt lat="42.50094" lon="2.3787">
        <ele>1297</ele>
        <time>2018-04-20T09:19:50.999Z</time>
      </trkpt>
    </trkseg>
  </trk>
</gpx>